<?xml version="1.0" encoding="UTF-8" standalone="no" ?>
<gpx xmlns="http://www.topografix.com/GPX/1/1" xmlns:xsi="http://www.w3.org/2001/XMLSchema-instance" xsi:schemaLocation="http://www.topografix.com/GPX/1/1 http://www.topografix.com/GPX/1/1/gpx.xsd" version="1.1" creator="VisuGPX - https://www.visugpx.com">
  <metadata>
    <name>Saint Liguaire (Les vignes) 7,3km</name>
  </metadata>
  <wpt lat="46.35423" lon="-0.56327">
    <ele>39.6</ele>
  </wpt>
  <wpt lat="46.35451" lon="-0.53817">
    <ele>75</ele>
  </wpt>
  <trk>
    <name><![CDATA[Saint Liguaire (Les vignes) 7,3km_1]]></name>
    <trkseg>
      <trkpt lat="46.3421" lon="-0.5355">
        <ele>41</ele>
        <time>2013-10-24T14:07:12Z</time>
      </trkpt>
      <trkpt lat="46.34209" lon="-0.5355">
        <ele>41</ele>
        <time>2013-10-24T14:07:17Z</time>
      </trkpt>
      <trkpt lat="46.34209" lon="-0.5355">
        <ele>41</ele>
        <time>2013-10-24T14:07:32Z</time>
      </trkpt>
      <trkpt lat="46.34209" lon="-0.53551">
        <ele>41</ele>
        <time>2013-10-24T14:07:37Z</time>
      </trkpt>
      <trkpt lat="46.34209" lon="-0.53552">
        <ele>41</ele>
        <time>2013-10-24T14:07:42Z</time>
      </trkpt>
      <trkpt lat="46.34209" lon="-0.53552">
        <ele>41</ele>
        <time>2013-10-24T14:07:47Z</time>
      </trkpt>
      <trkpt lat="46.3421" lon="-0.53556">
        <ele>41</ele>
        <time>2013-10-24T14:08:02Z</time>
      </trkpt>
      <trkpt lat="46.34212" lon="-0.53554">
        <ele>41</ele>
        <time>2013-10-24T14:08:07Z</time>
      </trkpt>
      <trkpt lat="46.34213" lon="-0.53554">
        <ele>41</ele>
        <time>2013-10-24T14:08:12Z</time>
      </trkpt>
      <trkpt lat="46.34217" lon="-0.5356">
        <ele>41</ele>
        <time>2013-10-24T14:08:17Z</time>
      </trkpt>
      <trkpt lat="46.34219" lon="-0.53565">
        <ele>41</ele>
        <time>2013-10-24T14:08:22Z</time>
      </trkpt>
      <trkpt lat="46.34219" lon="-0.53568">
        <ele>41</ele>
        <time>2013-10-24T14:08:27Z</time>
      </trkpt>
      <trkpt lat="46.34223" lon="-0.53576">
        <ele>41</ele>
        <time>2013-10-24T14:08:32Z</time>
      </trkpt>
      <trkpt lat="46.34226" lon="-0.53586">
        <ele>41</ele>
        <time>2013-10-24T14:08:37Z</time>
      </trkpt>
      <trkpt lat="46.34228" lon="-0.53594">
        <ele>41</ele>
        <time>2013-10-24T14:08:42Z</time>
      </trkpt>
      <trkpt lat="46.34231" lon="-0.53601">
        <ele>41</ele>
        <time>2013-10-24T14:08:47Z</time>
      </trkpt>
      <trkpt lat="46.34233" lon="-0.53609">
        <ele>41</ele>
        <time>2013-10-24T14:08:52Z</time>
      </trkpt>
      <trkpt lat="46.34234" lon="-0.53616">
        <ele>41</ele>
        <time>2013-10-24T14:08:57Z</time>
      </trkpt>
      <trkpt lat="46.34237" lon="-0.53623">
        <ele>41</ele>
        <time>2013-10-24T14:09:02Z</time>
      </trkpt>
      <trkpt lat="46.3424" lon="-0.53632">
        <ele>39</ele>
        <time>2013-10-24T14:09:07Z</time>
      </trkpt>
      <trkpt lat="46.34241" lon="-0.53639">
        <ele>39</ele>
        <time>2013-10-24T14:09:12Z</time>
      </trkpt>
      <trkpt lat="46.34243" lon="-0.53647">
        <ele>39</ele>
        <time>2013-10-24T14:09:17Z</time>
      </trkpt>
      <trkpt lat="46.34245" lon="-0.5365">
        <ele>39</ele>
        <time>2013-10-24T14:09:22Z</time>
      </trkpt>
      <trkpt lat="46.34246" lon="-0.53657">
        <ele>39</ele>
        <time>2013-10-24T14:09:27Z</time>
      </trkpt>
      <trkpt lat="46.34247" lon="-0.53665">
        <ele>39</ele>
        <time>2013-10-24T14:09:32Z</time>
      </trkpt>
      <trkpt lat="46.34247" lon="-0.53671">
        <ele>39</ele>
        <time>2013-10-24T14:09:37Z</time>
      </trkpt>
      <trkpt lat="46.34253" lon="-0.53684">
        <ele>39</ele>
        <time>2013-10-24T14:09:42Z</time>
      </trkpt>
      <trkpt lat="46.34255" lon="-0.53693">
        <ele>39</ele>
        <time>2013-10-24T14:09:47Z</time>
      </trkpt>
      <trkpt lat="46.34259" lon="-0.53701">
        <ele>39</ele>
        <time>2013-10-24T14:09:52Z</time>
      </trkpt>
      <trkpt lat="46.34262" lon="-0.53712">
        <ele>37</ele>
        <time>2013-10-24T14:09:57Z</time>
      </trkpt>
      <trkpt lat="46.34263" lon="-0.53713">
        <ele>37</ele>
        <time>2013-10-24T14:10:02Z</time>
      </trkpt>
      <trkpt lat="46.34264" lon="-0.53717">
        <ele>37</ele>
        <time>2013-10-24T14:10:07Z</time>
      </trkpt>
      <trkpt lat="46.34265" lon="-0.53723">
        <ele>37</ele>
        <time>2013-10-24T14:10:12Z</time>
      </trkpt>
      <trkpt lat="46.34266" lon="-0.53728">
        <ele>37</ele>
        <time>2013-10-24T14:10:17Z</time>
      </trkpt>
      <trkpt lat="46.34268" lon="-0.53737">
        <ele>37</ele>
        <time>2013-10-24T14:10:22Z</time>
      </trkpt>
      <trkpt lat="46.3427" lon="-0.53744">
        <ele>37</ele>
        <time>2013-10-24T14:10:27Z</time>
      </trkpt>
      <trkpt lat="46.34273" lon="-0.53752">
        <ele>37</ele>
        <time>2013-10-24T14:10:32Z</time>
      </trkpt>
      <trkpt lat="46.34275" lon="-0.5376">
        <ele>37</ele>
        <time>2013-10-24T14:10:37Z</time>
      </trkpt>
      <trkpt lat="46.34277" lon="-0.53769">
        <ele>37</ele>
        <time>2013-10-24T14:10:42Z</time>
      </trkpt>
      <trkpt lat="46.34281" lon="-0.53778">
        <ele>37</ele>
        <time>2013-10-24T14:10:47Z</time>
      </trkpt>
      <trkpt lat="46.34282" lon="-0.53787">
        <ele>37</ele>
        <time>2013-10-24T14:10:52Z</time>
      </trkpt>
      <trkpt lat="46.34285" lon="-0.53794">
        <ele>38</ele>
        <time>2013-10-24T14:10:57Z</time>
      </trkpt>
      <trkpt lat="46.34287" lon="-0.53801">
        <ele>38</ele>
        <time>2013-10-24T14:11:02Z</time>
      </trkpt>
      <trkpt lat="46.3429" lon="-0.53811">
        <ele>38</ele>
        <time>2013-10-24T14:11:07Z</time>
      </trkpt>
      <trkpt lat="46.34291" lon="-0.53819">
        <ele>38</ele>
        <time>2013-10-24T14:11:12Z</time>
      </trkpt>
      <trkpt lat="46.34294" lon="-0.53829">
        <ele>40</ele>
        <time>2013-10-24T14:11:17Z</time>
      </trkpt>
      <trkpt lat="46.34294" lon="-0.53834">
        <ele>40</ele>
        <time>2013-10-24T14:11:22Z</time>
      </trkpt>
      <trkpt lat="46.34298" lon="-0.53845">
        <ele>40</ele>
        <time>2013-10-24T14:11:27Z</time>
      </trkpt>
      <trkpt lat="46.34298" lon="-0.53857">
        <ele>40</ele>
        <time>2013-10-24T14:11:32Z</time>
      </trkpt>
      <trkpt lat="46.34301" lon="-0.53865">
        <ele>40</ele>
        <time>2013-10-24T14:11:37Z</time>
      </trkpt>
      <trkpt lat="46.34305" lon="-0.5387">
        <ele>40</ele>
        <time>2013-10-24T14:11:42Z</time>
      </trkpt>
      <trkpt lat="46.34306" lon="-0.53877">
        <ele>40</ele>
        <time>2013-10-24T14:11:47Z</time>
      </trkpt>
      <trkpt lat="46.34309" lon="-0.53885">
        <ele>40</ele>
        <time>2013-10-24T14:11:52Z</time>
      </trkpt>
      <trkpt lat="46.34312" lon="-0.53895">
        <ele>40</ele>
        <time>2013-10-24T14:11:57Z</time>
      </trkpt>
      <trkpt lat="46.34314" lon="-0.53905">
        <ele>40</ele>
        <time>2013-10-24T14:12:02Z</time>
      </trkpt>
      <trkpt lat="46.34318" lon="-0.53909">
        <ele>40</ele>
        <time>2013-10-24T14:12:07Z</time>
      </trkpt>
      <trkpt lat="46.34322" lon="-0.53911">
        <ele>40</ele>
        <time>2013-10-24T14:12:12Z</time>
      </trkpt>
      <trkpt lat="46.34324" lon="-0.5392">
        <ele>40</ele>
        <time>2013-10-24T14:12:17Z</time>
      </trkpt>
      <trkpt lat="46.34326" lon="-0.53925">
        <ele>40</ele>
        <time>2013-10-24T14:12:22Z</time>
      </trkpt>
      <trkpt lat="46.34325" lon="-0.53936">
        <ele>40</ele>
        <time>2013-10-24T14:12:27Z</time>
      </trkpt>
      <trkpt lat="46.34329" lon="-0.53944">
        <ele>40</ele>
        <time>2013-10-24T14:12:32Z</time>
      </trkpt>
      <trkpt lat="46.34333" lon="-0.53951">
        <ele>40</ele>
        <time>2013-10-24T14:12:37Z</time>
      </trkpt>
      <trkpt lat="46.34333" lon="-0.5396">
        <ele>40</ele>
        <time>2013-10-24T14:12:42Z</time>
      </trkpt>
      <trkpt lat="46.34335" lon="-0.53968">
        <ele>40</ele>
        <time>2013-10-24T14:12:47Z</time>
      </trkpt>
      <trkpt lat="46.34337" lon="-0.53975">
        <ele>40</ele>
        <time>2013-10-24T14:12:52Z</time>
      </trkpt>
      <trkpt lat="46.34339" lon="-0.53982">
        <ele>40</ele>
        <time>2013-10-24T14:12:57Z</time>
      </trkpt>
      <trkpt lat="46.34342" lon="-0.53989">
        <ele>40</ele>
        <time>2013-10-24T14:13:02Z</time>
      </trkpt>
      <trkpt lat="46.34344" lon="-0.53994">
        <ele>40</ele>
        <time>2013-10-24T14:13:07Z</time>
      </trkpt>
      <trkpt lat="46.34348" lon="-0.54007">
        <ele>40</ele>
        <time>2013-10-24T14:13:12Z</time>
      </trkpt>
      <trkpt lat="46.34349" lon="-0.54023">
        <ele>40</ele>
        <time>2013-10-24T14:13:17Z</time>
      </trkpt>
      <trkpt lat="46.34352" lon="-0.54026">
        <ele>40</ele>
        <time>2013-10-24T14:13:22Z</time>
      </trkpt>
      <trkpt lat="46.34354" lon="-0.54031">
        <ele>40</ele>
        <time>2013-10-24T14:13:27Z</time>
      </trkpt>
      <trkpt lat="46.34356" lon="-0.54038">
        <ele>40</ele>
        <time>2013-10-24T14:13:32Z</time>
      </trkpt>
      <trkpt lat="46.34358" lon="-0.54044">
        <ele>38</ele>
        <time>2013-10-24T14:13:37Z</time>
      </trkpt>
      <trkpt lat="46.3436" lon="-0.54053">
        <ele>38</ele>
        <time>2013-10-24T14:13:42Z</time>
      </trkpt>
      <trkpt lat="46.34363" lon="-0.54061">
        <ele>38</ele>
        <time>2013-10-24T14:13:47Z</time>
      </trkpt>
      <trkpt lat="46.34361" lon="-0.54068">
        <ele>38</ele>
        <time>2013-10-24T14:13:52Z</time>
      </trkpt>
      <trkpt lat="46.34365" lon="-0.54076">
        <ele>38</ele>
        <time>2013-10-24T14:13:57Z</time>
      </trkpt>
      <trkpt lat="46.34367" lon="-0.54084">
        <ele>38</ele>
        <time>2013-10-24T14:14:02Z</time>
      </trkpt>
      <trkpt lat="46.34372" lon="-0.5409">
        <ele>38</ele>
        <time>2013-10-24T14:14:07Z</time>
      </trkpt>
      <trkpt lat="46.34374" lon="-0.54098">
        <ele>38</ele>
        <time>2013-10-24T14:14:12Z</time>
      </trkpt>
      <trkpt lat="46.34377" lon="-0.54107">
        <ele>42</ele>
        <time>2013-10-24T14:14:17Z</time>
      </trkpt>
      <trkpt lat="46.34379" lon="-0.54112">
        <ele>42</ele>
        <time>2013-10-24T14:14:22Z</time>
      </trkpt>
      <trkpt lat="46.3438" lon="-0.54117">
        <ele>42</ele>
        <time>2013-10-24T14:14:27Z</time>
      </trkpt>
      <trkpt lat="46.34382" lon="-0.54126">
        <ele>42</ele>
        <time>2013-10-24T14:14:32Z</time>
      </trkpt>
      <trkpt lat="46.34386" lon="-0.54133">
        <ele>42</ele>
        <time>2013-10-24T14:14:37Z</time>
      </trkpt>
      <trkpt lat="46.34387" lon="-0.54144">
        <ele>42</ele>
        <time>2013-10-24T14:14:42Z</time>
      </trkpt>
      <trkpt lat="46.34391" lon="-0.54147">
        <ele>42</ele>
        <time>2013-10-24T14:14:47Z</time>
      </trkpt>
      <trkpt lat="46.34395" lon="-0.54154">
        <ele>42</ele>
        <time>2013-10-24T14:14:52Z</time>
      </trkpt>
      <trkpt lat="46.34399" lon="-0.54159">
        <ele>42</ele>
        <time>2013-10-24T14:14:57Z</time>
      </trkpt>
      <trkpt lat="46.344" lon="-0.54165">
        <ele>42</ele>
        <time>2013-10-24T14:15:02Z</time>
      </trkpt>
      <trkpt lat="46.34403" lon="-0.54172">
        <ele>42</ele>
        <time>2013-10-24T14:15:07Z</time>
      </trkpt>
      <trkpt lat="46.34407" lon="-0.54178">
        <ele>42</ele>
        <time>2013-10-24T14:15:12Z</time>
      </trkpt>
      <trkpt lat="46.34411" lon="-0.54185">
        <ele>42</ele>
        <time>2013-10-24T14:15:17Z</time>
      </trkpt>
      <trkpt lat="46.34414" lon="-0.5419">
        <ele>42</ele>
        <time>2013-10-24T14:15:22Z</time>
      </trkpt>
      <trkpt lat="46.34416" lon="-0.54197">
        <ele>42</ele>
        <time>2013-10-24T14:15:27Z</time>
      </trkpt>
      <trkpt lat="46.34419" lon="-0.54205">
        <ele>42</ele>
        <time>2013-10-24T14:15:32Z</time>
      </trkpt>
      <trkpt lat="46.34421" lon="-0.54213">
        <ele>41</ele>
        <time>2013-10-24T14:15:37Z</time>
      </trkpt>
      <trkpt lat="46.34426" lon="-0.54219">
        <ele>41</ele>
        <time>2013-10-24T14:15:42Z</time>
      </trkpt>
      <trkpt lat="46.3443" lon="-0.54229">
        <ele>41</ele>
        <time>2013-10-24T14:15:47Z</time>
      </trkpt>
      <trkpt lat="46.34432" lon="-0.54236">
        <ele>41</ele>
        <time>2013-10-24T14:15:52Z</time>
      </trkpt>
      <trkpt lat="46.34434" lon="-0.54243">
        <ele>41</ele>
        <time>2013-10-24T14:15:57Z</time>
      </trkpt>
      <trkpt lat="46.34438" lon="-0.54254">
        <ele>41</ele>
        <time>2013-10-24T14:16:02Z</time>
      </trkpt>
      <trkpt lat="46.34441" lon="-0.54259">
        <ele>41</ele>
        <time>2013-10-24T14:16:07Z</time>
      </trkpt>
      <trkpt lat="46.34446" lon="-0.54268">
        <ele>41</ele>
        <time>2013-10-24T14:16:12Z</time>
      </trkpt>
      <trkpt lat="46.34448" lon="-0.54273">
        <ele>41</ele>
        <time>2013-10-24T14:16:17Z</time>
      </trkpt>
      <trkpt lat="46.34451" lon="-0.5428">
        <ele>41</ele>
        <time>2013-10-24T14:16:22Z</time>
      </trkpt>
      <trkpt lat="46.34453" lon="-0.54292">
        <ele>41</ele>
        <time>2013-10-24T14:16:27Z</time>
      </trkpt>
      <trkpt lat="46.34454" lon="-0.54303">
        <ele>41</ele>
        <time>2013-10-24T14:16:32Z</time>
      </trkpt>
      <trkpt lat="46.34458" lon="-0.54307">
        <ele>41</ele>
        <time>2013-10-24T14:16:37Z</time>
      </trkpt>
      <trkpt lat="46.34463" lon="-0.54309">
        <ele>43</ele>
        <time>2013-10-24T14:16:42Z</time>
      </trkpt>
      <trkpt lat="46.34465" lon="-0.54311">
        <ele>43</ele>
        <time>2013-10-24T14:16:47Z</time>
      </trkpt>
      <trkpt lat="46.34466" lon="-0.54312">
        <ele>43</ele>
        <time>2013-10-24T14:16:52Z</time>
      </trkpt>
      <trkpt lat="46.34466" lon="-0.54318">
        <ele>43</ele>
        <time>2013-10-24T14:16:57Z</time>
      </trkpt>
      <trkpt lat="46.3447" lon="-0.54323">
        <ele>43</ele>
        <time>2013-10-24T14:17:02Z</time>
      </trkpt>
      <trkpt lat="46.34474" lon="-0.54327">
        <ele>43</ele>
        <time>2013-10-24T14:17:07Z</time>
      </trkpt>
      <trkpt lat="46.34476" lon="-0.54335">
        <ele>43</ele>
        <time>2013-10-24T14:17:12Z</time>
      </trkpt>
      <trkpt lat="46.34477" lon="-0.54343">
        <ele>43</ele>
        <time>2013-10-24T14:17:17Z</time>
      </trkpt>
      <trkpt lat="46.34479" lon="-0.5435">
        <ele>43</ele>
        <time>2013-10-24T14:17:22Z</time>
      </trkpt>
      <trkpt lat="46.34483" lon="-0.54354">
        <ele>43</ele>
        <time>2013-10-24T14:17:27Z</time>
      </trkpt>
      <trkpt lat="46.34485" lon="-0.54361">
        <ele>43</ele>
        <time>2013-10-24T14:17:32Z</time>
      </trkpt>
      <trkpt lat="46.34488" lon="-0.54367">
        <ele>43</ele>
        <time>2013-10-24T14:17:37Z</time>
      </trkpt>
      <trkpt lat="46.3449" lon="-0.54371">
        <ele>43</ele>
        <time>2013-10-24T14:17:42Z</time>
      </trkpt>
      <trkpt lat="46.34495" lon="-0.54379">
        <ele>41</ele>
        <time>2013-10-24T14:17:47Z</time>
      </trkpt>
      <trkpt lat="46.34497" lon="-0.54382">
        <ele>41</ele>
        <time>2013-10-24T14:17:52Z</time>
      </trkpt>
      <trkpt lat="46.34499" lon="-0.54389">
        <ele>41</ele>
        <time>2013-10-24T14:17:57Z</time>
      </trkpt>
      <trkpt lat="46.345" lon="-0.54394">
        <ele>41</ele>
        <time>2013-10-24T14:18:02Z</time>
      </trkpt>
      <trkpt lat="46.34502" lon="-0.54395">
        <ele>41</ele>
        <time>2013-10-24T14:18:07Z</time>
      </trkpt>
      <trkpt lat="46.34505" lon="-0.54404">
        <ele>41</ele>
        <time>2013-10-24T14:18:12Z</time>
      </trkpt>
      <trkpt lat="46.34509" lon="-0.54413">
        <ele>41</ele>
        <time>2013-10-24T14:18:17Z</time>
      </trkpt>
      <trkpt lat="46.34512" lon="-0.54421">
        <ele>41</ele>
        <time>2013-10-24T14:18:22Z</time>
      </trkpt>
      <trkpt lat="46.34513" lon="-0.5443">
        <ele>41</ele>
        <time>2013-10-24T14:18:27Z</time>
      </trkpt>
      <trkpt lat="46.34516" lon="-0.54439">
        <ele>41</ele>
        <time>2013-10-24T14:18:32Z</time>
      </trkpt>
      <trkpt lat="46.34519" lon="-0.54445">
        <ele>41</ele>
        <time>2013-10-24T14:18:37Z</time>
      </trkpt>
      <trkpt lat="46.34521" lon="-0.54453">
        <ele>41</ele>
        <time>2013-10-24T14:18:42Z</time>
      </trkpt>
      <trkpt lat="46.34524" lon="-0.5446">
        <ele>38</ele>
        <time>2013-10-24T14:18:47Z</time>
      </trkpt>
      <trkpt lat="46.34527" lon="-0.54467">
        <ele>38</ele>
        <time>2013-10-24T14:18:52Z</time>
      </trkpt>
      <trkpt lat="46.34529" lon="-0.54473">
        <ele>38</ele>
        <time>2013-10-24T14:18:57Z</time>
      </trkpt>
      <trkpt lat="46.34532" lon="-0.54479">
        <ele>38</ele>
        <time>2013-10-24T14:19:02Z</time>
      </trkpt>
      <trkpt lat="46.34535" lon="-0.54487">
        <ele>38</ele>
        <time>2013-10-24T14:19:07Z</time>
      </trkpt>
      <trkpt lat="46.34537" lon="-0.54494">
        <ele>38</ele>
        <time>2013-10-24T14:19:12Z</time>
      </trkpt>
      <trkpt lat="46.3454" lon="-0.545">
        <ele>38</ele>
        <time>2013-10-24T14:19:17Z</time>
      </trkpt>
      <trkpt lat="46.34542" lon="-0.54507">
        <ele>42</ele>
        <time>2013-10-24T14:19:22Z</time>
      </trkpt>
      <trkpt lat="46.34546" lon="-0.54516">
        <ele>42</ele>
        <time>2013-10-24T14:19:27Z</time>
      </trkpt>
      <trkpt lat="46.34549" lon="-0.54523">
        <ele>42</ele>
        <time>2013-10-24T14:19:32Z</time>
      </trkpt>
      <trkpt lat="46.34552" lon="-0.5453">
        <ele>42</ele>
        <time>2013-10-24T14:19:37Z</time>
      </trkpt>
      <trkpt lat="46.34555" lon="-0.54537">
        <ele>42</ele>
        <time>2013-10-24T14:19:42Z</time>
      </trkpt>
      <trkpt lat="46.34558" lon="-0.54544">
        <ele>40</ele>
        <time>2013-10-24T14:19:47Z</time>
      </trkpt>
      <trkpt lat="46.3456" lon="-0.54551">
        <ele>40</ele>
        <time>2013-10-24T14:19:52Z</time>
      </trkpt>
      <trkpt lat="46.34563" lon="-0.54558">
        <ele>40</ele>
        <time>2013-10-24T14:19:57Z</time>
      </trkpt>
      <trkpt lat="46.34566" lon="-0.54564">
        <ele>40</ele>
        <time>2013-10-24T14:20:02Z</time>
      </trkpt>
      <trkpt lat="46.34568" lon="-0.54571">
        <ele>40</ele>
        <time>2013-10-24T14:20:07Z</time>
      </trkpt>
      <trkpt lat="46.34572" lon="-0.54581">
        <ele>40</ele>
        <time>2013-10-24T14:20:12Z</time>
      </trkpt>
      <trkpt lat="46.34575" lon="-0.54587">
        <ele>40</ele>
        <time>2013-10-24T14:20:17Z</time>
      </trkpt>
      <trkpt lat="46.34578" lon="-0.54596">
        <ele>40</ele>
        <time>2013-10-24T14:20:22Z</time>
      </trkpt>
      <trkpt lat="46.3458" lon="-0.54602">
        <ele>40</ele>
        <time>2013-10-24T14:20:27Z</time>
      </trkpt>
      <trkpt lat="46.34581" lon="-0.54609">
        <ele>40</ele>
        <time>2013-10-24T14:20:32Z</time>
      </trkpt>
      <trkpt lat="46.34586" lon="-0.54618">
        <ele>40</ele>
        <time>2013-10-24T14:20:37Z</time>
      </trkpt>
      <trkpt lat="46.34589" lon="-0.54626">
        <ele>38</ele>
        <time>2013-10-24T14:20:42Z</time>
      </trkpt>
      <trkpt lat="46.34592" lon="-0.54633">
        <ele>38</ele>
        <time>2013-10-24T14:20:47Z</time>
      </trkpt>
      <trkpt lat="46.34595" lon="-0.54638">
        <ele>38</ele>
        <time>2013-10-24T14:20:52Z</time>
      </trkpt>
      <trkpt lat="46.34598" lon="-0.54645">
        <ele>38</ele>
        <time>2013-10-24T14:20:57Z</time>
      </trkpt>
      <trkpt lat="46.346" lon="-0.5465">
        <ele>38</ele>
        <time>2013-10-24T14:21:02Z</time>
      </trkpt>
      <trkpt lat="46.34604" lon="-0.54662">
        <ele>38</ele>
        <time>2013-10-24T14:21:07Z</time>
      </trkpt>
      <trkpt lat="46.34606" lon="-0.54667">
        <ele>38</ele>
        <time>2013-10-24T14:21:12Z</time>
      </trkpt>
      <trkpt lat="46.3461" lon="-0.54677">
        <ele>38</ele>
        <time>2013-10-24T14:21:17Z</time>
      </trkpt>
      <trkpt lat="46.34611" lon="-0.54683">
        <ele>38</ele>
        <time>2013-10-24T14:21:22Z</time>
      </trkpt>
      <trkpt lat="46.34614" lon="-0.54688">
        <ele>38</ele>
        <time>2013-10-24T14:21:27Z</time>
      </trkpt>
      <trkpt lat="46.34617" lon="-0.54697">
        <ele>38</ele>
        <time>2013-10-24T14:21:32Z</time>
      </trkpt>
      <trkpt lat="46.34621" lon="-0.54703">
        <ele>38</ele>
        <time>2013-10-24T14:21:37Z</time>
      </trkpt>
      <trkpt lat="46.34623" lon="-0.54708">
        <ele>36</ele>
        <time>2013-10-24T14:21:42Z</time>
      </trkpt>
      <trkpt lat="46.34625" lon="-0.54716">
        <ele>39</ele>
        <time>2013-10-24T14:21:47Z</time>
      </trkpt>
      <trkpt lat="46.34628" lon="-0.54722">
        <ele>39</ele>
        <time>2013-10-24T14:21:52Z</time>
      </trkpt>
      <trkpt lat="46.34631" lon="-0.54729">
        <ele>39</ele>
        <time>2013-10-24T14:21:57Z</time>
      </trkpt>
      <trkpt lat="46.34633" lon="-0.54736">
        <ele>39</ele>
        <time>2013-10-24T14:22:02Z</time>
      </trkpt>
      <trkpt lat="46.34637" lon="-0.54741">
        <ele>39</ele>
        <time>2013-10-24T14:22:07Z</time>
      </trkpt>
      <trkpt lat="46.34639" lon="-0.54747">
        <ele>39</ele>
        <time>2013-10-24T14:22:12Z</time>
      </trkpt>
      <trkpt lat="46.34642" lon="-0.54754">
        <ele>39</ele>
        <time>2013-10-24T14:22:17Z</time>
      </trkpt>
      <trkpt lat="46.34643" lon="-0.54759">
        <ele>39</ele>
        <time>2013-10-24T14:22:22Z</time>
      </trkpt>
      <trkpt lat="46.34647" lon="-0.54766">
        <ele>39</ele>
        <time>2013-10-24T14:22:27Z</time>
      </trkpt>
      <trkpt lat="46.3465" lon="-0.54772">
        <ele>39</ele>
        <time>2013-10-24T14:22:32Z</time>
      </trkpt>
      <trkpt lat="46.34653" lon="-0.54778">
        <ele>39</ele>
        <time>2013-10-24T14:22:37Z</time>
      </trkpt>
      <trkpt lat="46.34655" lon="-0.54783">
        <ele>39</ele>
        <time>2013-10-24T14:22:42Z</time>
      </trkpt>
      <trkpt lat="46.34659" lon="-0.54791">
        <ele>39</ele>
        <time>2013-10-24T14:22:47Z</time>
      </trkpt>
      <trkpt lat="46.34662" lon="-0.54796">
        <ele>39</ele>
        <time>2013-10-24T14:22:52Z</time>
      </trkpt>
      <trkpt lat="46.34665" lon="-0.54803">
        <ele>39</ele>
        <time>2013-10-24T14:22:57Z</time>
      </trkpt>
      <trkpt lat="46.34667" lon="-0.5481">
        <ele>39</ele>
        <time>2013-10-24T14:23:02Z</time>
      </trkpt>
      <trkpt lat="46.3467" lon="-0.54817">
        <ele>39</ele>
        <time>2013-10-24T14:23:07Z</time>
      </trkpt>
      <trkpt lat="46.34672" lon="-0.54824">
        <ele>39</ele>
        <time>2013-10-24T14:23:12Z</time>
      </trkpt>
      <trkpt lat="46.34675" lon="-0.54831">
        <ele>39</ele>
        <time>2013-10-24T14:23:17Z</time>
      </trkpt>
      <trkpt lat="46.34678" lon="-0.54838">
        <ele>39</ele>
        <time>2013-10-24T14:23:22Z</time>
      </trkpt>
      <trkpt lat="46.3468" lon="-0.54844">
        <ele>39</ele>
        <time>2013-10-24T14:23:27Z</time>
      </trkpt>
      <trkpt lat="46.34682" lon="-0.54851">
        <ele>39</ele>
        <time>2013-10-24T14:23:32Z</time>
      </trkpt>
      <trkpt lat="46.34686" lon="-0.54859">
        <ele>39</ele>
        <time>2013-10-24T14:23:37Z</time>
      </trkpt>
      <trkpt lat="46.34689" lon="-0.54868">
        <ele>39</ele>
        <time>2013-10-24T14:23:42Z</time>
      </trkpt>
      <trkpt lat="46.34692" lon="-0.54874">
        <ele>39</ele>
        <time>2013-10-24T14:23:47Z</time>
      </trkpt>
      <trkpt lat="46.34696" lon="-0.54881">
        <ele>38</ele>
        <time>2013-10-24T14:23:52Z</time>
      </trkpt>
      <trkpt lat="46.34699" lon="-0.54888">
        <ele>38</ele>
        <time>2013-10-24T14:23:57Z</time>
      </trkpt>
      <trkpt lat="46.34703" lon="-0.54895">
        <ele>38</ele>
        <time>2013-10-24T14:24:02Z</time>
      </trkpt>
      <trkpt lat="46.34705" lon="-0.54902">
        <ele>38</ele>
        <time>2013-10-24T14:24:07Z</time>
      </trkpt>
      <trkpt lat="46.34707" lon="-0.5491">
        <ele>38</ele>
        <time>2013-10-24T14:24:12Z</time>
      </trkpt>
      <trkpt lat="46.3471" lon="-0.54918">
        <ele>40</ele>
        <time>2013-10-24T14:24:17Z</time>
      </trkpt>
      <trkpt lat="46.34712" lon="-0.54926">
        <ele>40</ele>
        <time>2013-10-24T14:24:22Z</time>
      </trkpt>
      <trkpt lat="46.34715" lon="-0.54935">
        <ele>40</ele>
        <time>2013-10-24T14:24:27Z</time>
      </trkpt>
      <trkpt lat="46.34718" lon="-0.54941">
        <ele>40</ele>
        <time>2013-10-24T14:24:32Z</time>
      </trkpt>
      <trkpt lat="46.34722" lon="-0.5495">
        <ele>40</ele>
        <time>2013-10-24T14:24:37Z</time>
      </trkpt>
      <trkpt lat="46.34725" lon="-0.54955">
        <ele>40</ele>
        <time>2013-10-24T14:24:42Z</time>
      </trkpt>
      <trkpt lat="46.34728" lon="-0.54962">
        <ele>39</ele>
        <time>2013-10-24T14:24:47Z</time>
      </trkpt>
      <trkpt lat="46.34731" lon="-0.54971">
        <ele>39</ele>
        <time>2013-10-24T14:24:52Z</time>
      </trkpt>
      <trkpt lat="46.34734" lon="-0.54979">
        <ele>39</ele>
        <time>2013-10-24T14:25:02Z</time>
      </trkpt>
      <trkpt lat="46.34736" lon="-0.54989">
        <ele>39</ele>
        <time>2013-10-24T14:25:07Z</time>
      </trkpt>
      <trkpt lat="46.34739" lon="-0.54995">
        <ele>39</ele>
        <time>2013-10-24T14:25:12Z</time>
      </trkpt>
      <trkpt lat="46.34742" lon="-0.55002">
        <ele>39</ele>
        <time>2013-10-24T14:25:17Z</time>
      </trkpt>
      <trkpt lat="46.34744" lon="-0.5501">
        <ele>39</ele>
        <time>2013-10-24T14:25:22Z</time>
      </trkpt>
      <trkpt lat="46.34745" lon="-0.55018">
        <ele>39</ele>
        <time>2013-10-24T14:25:27Z</time>
      </trkpt>
      <trkpt lat="46.34749" lon="-0.55022">
        <ele>39</ele>
        <time>2013-10-24T14:25:32Z</time>
      </trkpt>
      <trkpt lat="46.34751" lon="-0.55029">
        <ele>39</ele>
        <time>2013-10-24T14:25:37Z</time>
      </trkpt>
      <trkpt lat="46.34754" lon="-0.55035">
        <ele>39</ele>
        <time>2013-10-24T14:25:42Z</time>
      </trkpt>
      <trkpt lat="46.34756" lon="-0.55043">
        <ele>37</ele>
        <time>2013-10-24T14:25:47Z</time>
      </trkpt>
      <trkpt lat="46.34759" lon="-0.55048">
        <ele>37</ele>
        <time>2013-10-24T14:25:52Z</time>
      </trkpt>
      <trkpt lat="46.34763" lon="-0.55056">
        <ele>37</ele>
        <time>2013-10-24T14:25:57Z</time>
      </trkpt>
      <trkpt lat="46.34766" lon="-0.55062">
        <ele>37</ele>
        <time>2013-10-24T14:26:02Z</time>
      </trkpt>
      <trkpt lat="46.34769" lon="-0.5507">
        <ele>37</ele>
        <time>2013-10-24T14:26:07Z</time>
      </trkpt>
      <trkpt lat="46.34772" lon="-0.55076">
        <ele>37</ele>
        <time>2013-10-24T14:26:12Z</time>
      </trkpt>
      <trkpt lat="46.34774" lon="-0.55083">
        <ele>37</ele>
        <time>2013-10-24T14:26:17Z</time>
      </trkpt>
      <trkpt lat="46.34777" lon="-0.55091">
        <ele>37</ele>
        <time>2013-10-24T14:26:22Z</time>
      </trkpt>
      <trkpt lat="46.34779" lon="-0.55098">
        <ele>37</ele>
        <time>2013-10-24T14:26:27Z</time>
      </trkpt>
      <trkpt lat="46.34783" lon="-0.55106">
        <ele>37</ele>
        <time>2013-10-24T14:26:32Z</time>
      </trkpt>
      <trkpt lat="46.34785" lon="-0.55113">
        <ele>37</ele>
        <time>2013-10-24T14:26:37Z</time>
      </trkpt>
      <trkpt lat="46.34788" lon="-0.55121">
        <ele>37</ele>
        <time>2013-10-24T14:26:42Z</time>
      </trkpt>
      <trkpt lat="46.34792" lon="-0.55128">
        <ele>40</ele>
        <time>2013-10-24T14:26:47Z</time>
      </trkpt>
      <trkpt lat="46.34794" lon="-0.55133">
        <ele>40</ele>
        <time>2013-10-24T14:26:52Z</time>
      </trkpt>
      <trkpt lat="46.34797" lon="-0.5514">
        <ele>40</ele>
        <time>2013-10-24T14:26:57Z</time>
      </trkpt>
      <trkpt lat="46.348" lon="-0.55148">
        <ele>40</ele>
        <time>2013-10-24T14:27:02Z</time>
      </trkpt>
      <trkpt lat="46.34802" lon="-0.55155">
        <ele>40</ele>
        <time>2013-10-24T14:27:07Z</time>
      </trkpt>
      <trkpt lat="46.34804" lon="-0.5516">
        <ele>40</ele>
        <time>2013-10-24T14:27:12Z</time>
      </trkpt>
      <trkpt lat="46.34807" lon="-0.55167">
        <ele>40</ele>
        <time>2013-10-24T14:27:17Z</time>
      </trkpt>
      <trkpt lat="46.34809" lon="-0.55175">
        <ele>40</ele>
        <time>2013-10-24T14:27:22Z</time>
      </trkpt>
      <trkpt lat="46.34812" lon="-0.55181">
        <ele>40</ele>
        <time>2013-10-24T14:27:27Z</time>
      </trkpt>
      <trkpt lat="46.34815" lon="-0.55186">
        <ele>40</ele>
        <time>2013-10-24T14:27:32Z</time>
      </trkpt>
      <trkpt lat="46.34817" lon="-0.55191">
        <ele>40</ele>
        <time>2013-10-24T14:27:37Z</time>
      </trkpt>
      <trkpt lat="46.3482" lon="-0.55199">
        <ele>40</ele>
        <time>2013-10-24T14:27:42Z</time>
      </trkpt>
      <trkpt lat="46.34823" lon="-0.55206">
        <ele>40</ele>
        <time>2013-10-24T14:27:47Z</time>
      </trkpt>
      <trkpt lat="46.34826" lon="-0.55214">
        <ele>37</ele>
        <time>2013-10-24T14:27:52Z</time>
      </trkpt>
      <trkpt lat="46.34828" lon="-0.5522">
        <ele>37</ele>
        <time>2013-10-24T14:27:57Z</time>
      </trkpt>
      <trkpt lat="46.34833" lon="-0.55225">
        <ele>37</ele>
        <time>2013-10-24T14:28:02Z</time>
      </trkpt>
      <trkpt lat="46.34834" lon="-0.55232">
        <ele>37</ele>
        <time>2013-10-24T14:28:07Z</time>
      </trkpt>
      <trkpt lat="46.34836" lon="-0.55241">
        <ele>37</ele>
        <time>2013-10-24T14:28:12Z</time>
      </trkpt>
      <trkpt lat="46.34838" lon="-0.55248">
        <ele>37</ele>
        <time>2013-10-24T14:28:17Z</time>
      </trkpt>
      <trkpt lat="46.34841" lon="-0.55254">
        <ele>37</ele>
        <time>2013-10-24T14:28:22Z</time>
      </trkpt>
      <trkpt lat="46.34844" lon="-0.5526">
        <ele>37</ele>
        <time>2013-10-24T14:28:27Z</time>
      </trkpt>
      <trkpt lat="46.34848" lon="-0.55267">
        <ele>37</ele>
        <time>2013-10-24T14:28:32Z</time>
      </trkpt>
      <trkpt lat="46.3485" lon="-0.55272">
        <ele>37</ele>
        <time>2013-10-24T14:28:37Z</time>
      </trkpt>
      <trkpt lat="46.34854" lon="-0.55281">
        <ele>37</ele>
        <time>2013-10-24T14:28:42Z</time>
      </trkpt>
      <trkpt lat="46.34857" lon="-0.55286">
        <ele>37</ele>
        <time>2013-10-24T14:28:47Z</time>
      </trkpt>
      <trkpt lat="46.34859" lon="-0.55296">
        <ele>34</ele>
        <time>2013-10-24T14:28:52Z</time>
      </trkpt>
      <trkpt lat="46.34862" lon="-0.55303">
        <ele>34</ele>
        <time>2013-10-24T14:28:57Z</time>
      </trkpt>
      <trkpt lat="46.34864" lon="-0.55311">
        <ele>34</ele>
        <time>2013-10-24T14:29:02Z</time>
      </trkpt>
      <trkpt lat="46.34866" lon="-0.55319">
        <ele>34</ele>
        <time>2013-10-24T14:29:07Z</time>
      </trkpt>
      <trkpt lat="46.34869" lon="-0.55326">
        <ele>34</ele>
        <time>2013-10-24T14:29:12Z</time>
      </trkpt>
      <trkpt lat="46.34871" lon="-0.55334">
        <ele>34</ele>
        <time>2013-10-24T14:29:17Z</time>
      </trkpt>
      <trkpt lat="46.34874" lon="-0.55343">
        <ele>34</ele>
        <time>2013-10-24T14:29:22Z</time>
      </trkpt>
      <trkpt lat="46.34876" lon="-0.55351">
        <ele>41</ele>
        <time>2013-10-24T14:29:27Z</time>
      </trkpt>
      <trkpt lat="46.34879" lon="-0.55358">
        <ele>41</ele>
        <time>2013-10-24T14:29:32Z</time>
      </trkpt>
      <trkpt lat="46.34881" lon="-0.55365">
        <ele>41</ele>
        <time>2013-10-24T14:29:37Z</time>
      </trkpt>
      <trkpt lat="46.34885" lon="-0.55374">
        <ele>41</ele>
        <time>2013-10-24T14:29:42Z</time>
      </trkpt>
      <trkpt lat="46.34889" lon="-0.55378">
        <ele>38</ele>
        <time>2013-10-24T14:29:47Z</time>
      </trkpt>
      <trkpt lat="46.34893" lon="-0.55384">
        <ele>38</ele>
        <time>2013-10-24T14:29:52Z</time>
      </trkpt>
      <trkpt lat="46.34896" lon="-0.55389">
        <ele>38</ele>
        <time>2013-10-24T14:29:57Z</time>
      </trkpt>
      <trkpt lat="46.34897" lon="-0.55394">
        <ele>38</ele>
        <time>2013-10-24T14:30:02Z</time>
      </trkpt>
      <trkpt lat="46.349" lon="-0.55402">
        <ele>38</ele>
        <time>2013-10-24T14:30:07Z</time>
      </trkpt>
      <trkpt lat="46.34903" lon="-0.55414">
        <ele>38</ele>
        <time>2013-10-24T14:30:12Z</time>
      </trkpt>
      <trkpt lat="46.34907" lon="-0.55414">
        <ele>38</ele>
        <time>2013-10-24T14:30:17Z</time>
      </trkpt>
      <trkpt lat="46.3491" lon="-0.55424">
        <ele>38</ele>
        <time>2013-10-24T14:30:22Z</time>
      </trkpt>
      <trkpt lat="46.34912" lon="-0.55433">
        <ele>38</ele>
        <time>2013-10-24T14:30:27Z</time>
      </trkpt>
      <trkpt lat="46.34917" lon="-0.55444">
        <ele>38</ele>
        <time>2013-10-24T14:30:32Z</time>
      </trkpt>
      <trkpt lat="46.34915" lon="-0.55447">
        <ele>38</ele>
        <time>2013-10-24T14:30:37Z</time>
      </trkpt>
      <trkpt lat="46.34918" lon="-0.55453">
        <ele>38</ele>
        <time>2013-10-24T14:30:42Z</time>
      </trkpt>
      <trkpt lat="46.34922" lon="-0.55456">
        <ele>38</ele>
        <time>2013-10-24T14:30:47Z</time>
      </trkpt>
      <trkpt lat="46.34925" lon="-0.55465">
        <ele>35</ele>
        <time>2013-10-24T14:30:52Z</time>
      </trkpt>
      <trkpt lat="46.34927" lon="-0.55469">
        <ele>35</ele>
        <time>2013-10-24T14:30:57Z</time>
      </trkpt>
      <trkpt lat="46.3493" lon="-0.55476">
        <ele>35</ele>
        <time>2013-10-24T14:31:02Z</time>
      </trkpt>
      <trkpt lat="46.34931" lon="-0.55485">
        <ele>35</ele>
        <time>2013-10-24T14:31:07Z</time>
      </trkpt>
      <trkpt lat="46.34935" lon="-0.55488">
        <ele>35</ele>
        <time>2013-10-24T14:31:12Z</time>
      </trkpt>
      <trkpt lat="46.34938" lon="-0.55495">
        <ele>35</ele>
        <time>2013-10-24T14:31:17Z</time>
      </trkpt>
      <trkpt lat="46.34942" lon="-0.55506">
        <ele>35</ele>
        <time>2013-10-24T14:31:22Z</time>
      </trkpt>
      <trkpt lat="46.34943" lon="-0.55514">
        <ele>35</ele>
        <time>2013-10-24T14:31:27Z</time>
      </trkpt>
      <trkpt lat="46.34948" lon="-0.55518">
        <ele>35</ele>
        <time>2013-10-24T14:31:32Z</time>
      </trkpt>
      <trkpt lat="46.34952" lon="-0.55522">
        <ele>35</ele>
        <time>2013-10-24T14:31:37Z</time>
      </trkpt>
      <trkpt lat="46.34955" lon="-0.55529">
        <ele>35</ele>
        <time>2013-10-24T14:31:42Z</time>
      </trkpt>
      <trkpt lat="46.3496" lon="-0.55537">
        <ele>43</ele>
        <time>2013-10-24T14:31:47Z</time>
      </trkpt>
      <trkpt lat="46.34961" lon="-0.55546">
        <ele>42</ele>
        <time>2013-10-24T14:31:52Z</time>
      </trkpt>
      <trkpt lat="46.34961" lon="-0.55551">
        <ele>42</ele>
        <time>2013-10-24T14:31:57Z</time>
      </trkpt>
      <trkpt lat="46.34964" lon="-0.55559">
        <ele>42</ele>
        <time>2013-10-24T14:32:02Z</time>
      </trkpt>
      <trkpt lat="46.34967" lon="-0.55563">
        <ele>42</ele>
        <time>2013-10-24T14:32:07Z</time>
      </trkpt>
      <trkpt lat="46.3497" lon="-0.55572">
        <ele>42</ele>
        <time>2013-10-24T14:32:12Z</time>
      </trkpt>
      <trkpt lat="46.34973" lon="-0.55579">
        <ele>42</ele>
        <time>2013-10-24T14:32:17Z</time>
      </trkpt>
      <trkpt lat="46.34976" lon="-0.55587">
        <ele>42</ele>
        <time>2013-10-24T14:32:22Z</time>
      </trkpt>
      <trkpt lat="46.34979" lon="-0.55593">
        <ele>42</ele>
        <time>2013-10-24T14:32:27Z</time>
      </trkpt>
      <trkpt lat="46.34983" lon="-0.55599">
        <ele>42</ele>
        <time>2013-10-24T14:32:32Z</time>
      </trkpt>
      <trkpt lat="46.34985" lon="-0.55607">
        <ele>42</ele>
        <time>2013-10-24T14:32:37Z</time>
      </trkpt>
      <trkpt lat="46.34986" lon="-0.55612">
        <ele>42</ele>
        <time>2013-10-24T14:32:42Z</time>
      </trkpt>
      <trkpt lat="46.3499" lon="-0.55618">
        <ele>42</ele>
        <time>2013-10-24T14:32:47Z</time>
      </trkpt>
      <trkpt lat="46.34995" lon="-0.55624">
        <ele>42</ele>
        <time>2013-10-24T14:32:52Z</time>
      </trkpt>
      <trkpt lat="46.34996" lon="-0.55631">
        <ele>40</ele>
        <time>2013-10-24T14:32:57Z</time>
      </trkpt>
      <trkpt lat="46.34997" lon="-0.55639">
        <ele>40</ele>
        <time>2013-10-24T14:33:02Z</time>
      </trkpt>
      <trkpt lat="46.35" lon="-0.55646">
        <ele>40</ele>
        <time>2013-10-24T14:33:07Z</time>
      </trkpt>
      <trkpt lat="46.35003" lon="-0.55654">
        <ele>40</ele>
        <time>2013-10-24T14:33:12Z</time>
      </trkpt>
      <trkpt lat="46.35005" lon="-0.55661">
        <ele>40</ele>
        <time>2013-10-24T14:33:17Z</time>
      </trkpt>
      <trkpt lat="46.35009" lon="-0.55669">
        <ele>40</ele>
        <time>2013-10-24T14:33:22Z</time>
      </trkpt>
      <trkpt lat="46.35013" lon="-0.55676">
        <ele>40</ele>
        <time>2013-10-24T14:33:27Z</time>
      </trkpt>
      <trkpt lat="46.35013" lon="-0.55682">
        <ele>40</ele>
        <time>2013-10-24T14:33:32Z</time>
      </trkpt>
      <trkpt lat="46.35016" lon="-0.55685">
        <ele>40</ele>
        <time>2013-10-24T14:33:37Z</time>
      </trkpt>
      <trkpt lat="46.35019" lon="-0.55692">
        <ele>40</ele>
        <time>2013-10-24T14:33:42Z</time>
      </trkpt>
      <trkpt lat="46.35021" lon="-0.557">
        <ele>40</ele>
        <time>2013-10-24T14:33:47Z</time>
      </trkpt>
      <trkpt lat="46.35022" lon="-0.55707">
        <ele>40</ele>
        <time>2013-10-24T14:33:52Z</time>
      </trkpt>
      <trkpt lat="46.35026" lon="-0.55715">
        <ele>39</ele>
        <time>2013-10-24T14:33:57Z</time>
      </trkpt>
      <trkpt lat="46.35027" lon="-0.55725">
        <ele>39</ele>
        <time>2013-10-24T14:34:02Z</time>
      </trkpt>
      <trkpt lat="46.35028" lon="-0.55736">
        <ele>39</ele>
        <time>2013-10-24T14:34:07Z</time>
      </trkpt>
      <trkpt lat="46.35031" lon="-0.55744">
        <ele>39</ele>
        <time>2013-10-24T14:34:12Z</time>
      </trkpt>
      <trkpt lat="46.35035" lon="-0.55749">
        <ele>39</ele>
        <time>2013-10-24T14:34:17Z</time>
      </trkpt>
      <trkpt lat="46.35036" lon="-0.55756">
        <ele>39</ele>
        <time>2013-10-24T14:34:22Z</time>
      </trkpt>
      <trkpt lat="46.35036" lon="-0.55762">
        <ele>39</ele>
        <time>2013-10-24T14:34:27Z</time>
      </trkpt>
      <trkpt lat="46.35038" lon="-0.55772">
        <ele>39</ele>
        <time>2013-10-24T14:34:32Z</time>
      </trkpt>
      <trkpt lat="46.35041" lon="-0.55778">
        <ele>39</ele>
        <time>2013-10-24T14:34:37Z</time>
      </trkpt>
      <trkpt lat="46.35045" lon="-0.55788">
        <ele>43</ele>
        <time>2013-10-24T14:34:42Z</time>
      </trkpt>
      <trkpt lat="46.35048" lon="-0.55794">
        <ele>40</ele>
        <time>2013-10-24T14:34:47Z</time>
      </trkpt>
      <trkpt lat="46.35052" lon="-0.55797">
        <ele>40</ele>
        <time>2013-10-24T14:34:52Z</time>
      </trkpt>
      <trkpt lat="46.35055" lon="-0.55805">
        <ele>40</ele>
        <time>2013-10-24T14:34:57Z</time>
      </trkpt>
      <trkpt lat="46.35057" lon="-0.55812">
        <ele>40</ele>
        <time>2013-10-24T14:35:02Z</time>
      </trkpt>
      <trkpt lat="46.35059" lon="-0.55821">
        <ele>40</ele>
        <time>2013-10-24T14:35:07Z</time>
      </trkpt>
      <trkpt lat="46.35062" lon="-0.55827">
        <ele>40</ele>
        <time>2013-10-24T14:35:12Z</time>
      </trkpt>
      <trkpt lat="46.35064" lon="-0.55833">
        <ele>40</ele>
        <time>2013-10-24T14:35:17Z</time>
      </trkpt>
      <trkpt lat="46.35069" lon="-0.55841">
        <ele>40</ele>
        <time>2013-10-24T14:35:22Z</time>
      </trkpt>
      <trkpt lat="46.35074" lon="-0.55844">
        <ele>40</ele>
        <time>2013-10-24T14:35:27Z</time>
      </trkpt>
      <trkpt lat="46.3508" lon="-0.55846">
        <ele>40</ele>
        <time>2013-10-24T14:35:32Z</time>
      </trkpt>
      <trkpt lat="46.35087" lon="-0.55841">
        <ele>40</ele>
        <time>2013-10-24T14:35:37Z</time>
      </trkpt>
      <trkpt lat="46.35094" lon="-0.55837">
        <ele>40</ele>
        <time>2013-10-24T14:35:42Z</time>
      </trkpt>
      <trkpt lat="46.351" lon="-0.55832">
        <ele>40</ele>
        <time>2013-10-24T14:35:47Z</time>
      </trkpt>
      <trkpt lat="46.35103" lon="-0.55829">
        <ele>40</ele>
        <time>2013-10-24T14:35:52Z</time>
      </trkpt>
      <trkpt lat="46.35108" lon="-0.55825">
        <ele>40</ele>
        <time>2013-10-24T14:35:57Z</time>
      </trkpt>
      <trkpt lat="46.35113" lon="-0.55821">
        <ele>40</ele>
        <time>2013-10-24T14:36:02Z</time>
      </trkpt>
      <trkpt lat="46.35117" lon="-0.55818">
        <ele>40</ele>
        <time>2013-10-24T14:36:07Z</time>
      </trkpt>
      <trkpt lat="46.35123" lon="-0.55816">
        <ele>40</ele>
        <time>2013-10-24T14:36:12Z</time>
      </trkpt>
      <trkpt lat="46.35128" lon="-0.55812">
        <ele>42</ele>
        <time>2013-10-24T14:36:17Z</time>
      </trkpt>
      <trkpt lat="46.35133" lon="-0.55809">
        <ele>42</ele>
        <time>2013-10-24T14:36:22Z</time>
      </trkpt>
      <trkpt lat="46.35137" lon="-0.55805">
        <ele>42</ele>
        <time>2013-10-24T14:36:27Z</time>
      </trkpt>
      <trkpt lat="46.35141" lon="-0.55804">
        <ele>42</ele>
        <time>2013-10-24T14:36:32Z</time>
      </trkpt>
      <trkpt lat="46.35145" lon="-0.55802">
        <ele>42</ele>
        <time>2013-10-24T14:36:37Z</time>
      </trkpt>
      <trkpt lat="46.35152" lon="-0.558">
        <ele>42</ele>
        <time>2013-10-24T14:36:42Z</time>
      </trkpt>
      <trkpt lat="46.35157" lon="-0.55797">
        <ele>42</ele>
        <time>2013-10-24T14:36:47Z</time>
      </trkpt>
      <trkpt lat="46.35162" lon="-0.55795">
        <ele>42</ele>
        <time>2013-10-24T14:36:52Z</time>
      </trkpt>
      <trkpt lat="46.35168" lon="-0.55792">
        <ele>42</ele>
        <time>2013-10-24T14:36:57Z</time>
      </trkpt>
      <trkpt lat="46.35171" lon="-0.55789">
        <ele>46</ele>
        <time>2013-10-24T14:37:02Z</time>
      </trkpt>
      <trkpt lat="46.35177" lon="-0.55788">
        <ele>46</ele>
        <time>2013-10-24T14:37:07Z</time>
      </trkpt>
      <trkpt lat="46.35183" lon="-0.55785">
        <ele>46</ele>
        <time>2013-10-24T14:37:12Z</time>
      </trkpt>
      <trkpt lat="46.35187" lon="-0.55781">
        <ele>46</ele>
        <time>2013-10-24T14:37:17Z</time>
      </trkpt>
      <trkpt lat="46.35192" lon="-0.55779">
        <ele>46</ele>
        <time>2013-10-24T14:37:22Z</time>
      </trkpt>
      <trkpt lat="46.35197" lon="-0.55777">
        <ele>46</ele>
        <time>2013-10-24T14:37:27Z</time>
      </trkpt>
      <trkpt lat="46.35202" lon="-0.55773">
        <ele>46</ele>
        <time>2013-10-24T14:37:32Z</time>
      </trkpt>
      <trkpt lat="46.35207" lon="-0.5577">
        <ele>46</ele>
        <time>2013-10-24T14:37:37Z</time>
      </trkpt>
      <trkpt lat="46.35213" lon="-0.55767">
        <ele>47</ele>
        <time>2013-10-24T14:37:42Z</time>
      </trkpt>
      <trkpt lat="46.35216" lon="-0.55765">
        <ele>47</ele>
        <time>2013-10-24T14:37:47Z</time>
      </trkpt>
      <trkpt lat="46.35221" lon="-0.55761">
        <ele>47</ele>
        <time>2013-10-24T14:37:52Z</time>
      </trkpt>
      <trkpt lat="46.35225" lon="-0.55758">
        <ele>47</ele>
        <time>2013-10-24T14:37:57Z</time>
      </trkpt>
      <trkpt lat="46.3523" lon="-0.55755">
        <ele>47</ele>
        <time>2013-10-24T14:38:02Z</time>
      </trkpt>
      <trkpt lat="46.35233" lon="-0.55751">
        <ele>47</ele>
        <time>2013-10-24T14:38:07Z</time>
      </trkpt>
      <trkpt lat="46.35236" lon="-0.55749">
        <ele>47</ele>
        <time>2013-10-24T14:38:12Z</time>
      </trkpt>
      <trkpt lat="46.35243" lon="-0.55749">
        <ele>47</ele>
        <time>2013-10-24T14:38:17Z</time>
      </trkpt>
      <trkpt lat="46.35246" lon="-0.5575">
        <ele>47</ele>
        <time>2013-10-24T14:38:22Z</time>
      </trkpt>
      <trkpt lat="46.35246" lon="-0.55749">
        <ele>47</ele>
        <time>2013-10-24T14:38:27Z</time>
      </trkpt>
      <trkpt lat="46.35247" lon="-0.5575">
        <ele>47</ele>
        <time>2013-10-24T14:38:32Z</time>
      </trkpt>
      <trkpt lat="46.35247" lon="-0.5575">
        <ele>47</ele>
        <time>2013-10-24T14:38:37Z</time>
      </trkpt>
      <trkpt lat="46.35249" lon="-0.55754">
        <ele>47</ele>
        <time>2013-10-24T14:38:42Z</time>
      </trkpt>
      <trkpt lat="46.35251" lon="-0.55759">
        <ele>47</ele>
        <time>2013-10-24T14:38:47Z</time>
      </trkpt>
      <trkpt lat="46.35252" lon="-0.55766">
        <ele>47</ele>
        <time>2013-10-24T14:38:52Z</time>
      </trkpt>
      <trkpt lat="46.35253" lon="-0.55765">
        <ele>47</ele>
        <time>2013-10-24T14:38:57Z</time>
      </trkpt>
      <trkpt lat="46.35253" lon="-0.55765">
        <ele>47</ele>
        <time>2013-10-24T14:39:02Z</time>
      </trkpt>
      <trkpt lat="46.35253" lon="-0.55766">
        <ele>47</ele>
        <time>2013-10-24T14:39:07Z</time>
      </trkpt>
      <trkpt lat="46.35253" lon="-0.55768">
        <ele>47</ele>
        <time>2013-10-24T14:39:12Z</time>
      </trkpt>
      <trkpt lat="46.35257" lon="-0.55779">
        <ele>47</ele>
        <time>2013-10-24T14:39:17Z</time>
      </trkpt>
      <trkpt lat="46.35257" lon="-0.55785">
        <ele>47</ele>
        <time>2013-10-24T14:39:22Z</time>
      </trkpt>
      <trkpt lat="46.35258" lon="-0.55792">
        <ele>44</ele>
        <time>2013-10-24T14:39:27Z</time>
      </trkpt>
      <trkpt lat="46.35258" lon="-0.55803">
        <ele>44</ele>
        <time>2013-10-24T14:39:32Z</time>
      </trkpt>
      <trkpt lat="46.35258" lon="-0.55808">
        <ele>44</ele>
        <time>2013-10-24T14:39:37Z</time>
      </trkpt>
      <trkpt lat="46.3526" lon="-0.55816">
        <ele>44</ele>
        <time>2013-10-24T14:39:42Z</time>
      </trkpt>
      <trkpt lat="46.35261" lon="-0.55819">
        <ele>44</ele>
        <time>2013-10-24T14:39:47Z</time>
      </trkpt>
      <trkpt lat="46.35262" lon="-0.55825">
        <ele>44</ele>
        <time>2013-10-24T14:39:52Z</time>
      </trkpt>
      <trkpt lat="46.35261" lon="-0.55832">
        <ele>44</ele>
        <time>2013-10-24T14:39:57Z</time>
      </trkpt>
      <trkpt lat="46.35263" lon="-0.55836">
        <ele>44</ele>
        <time>2013-10-24T14:40:02Z</time>
      </trkpt>
      <trkpt lat="46.35263" lon="-0.55837">
        <ele>44</ele>
        <time>2013-10-24T14:40:07Z</time>
      </trkpt>
      <trkpt lat="46.35262" lon="-0.55844">
        <ele>44</ele>
        <time>2013-10-24T14:40:12Z</time>
      </trkpt>
      <trkpt lat="46.35263" lon="-0.55851">
        <ele>44</ele>
        <time>2013-10-24T14:40:17Z</time>
      </trkpt>
      <trkpt lat="46.35265" lon="-0.55849">
        <ele>44</ele>
        <time>2013-10-24T14:40:22Z</time>
      </trkpt>
      <trkpt lat="46.35264" lon="-0.55849">
        <ele>44</ele>
        <time>2013-10-24T14:40:27Z</time>
      </trkpt>
      <trkpt lat="46.35265" lon="-0.5585">
        <ele>44</ele>
        <time>2013-10-24T14:40:32Z</time>
      </trkpt>
      <trkpt lat="46.35264" lon="-0.55855">
        <ele>44</ele>
        <time>2013-10-24T14:40:37Z</time>
      </trkpt>
      <trkpt lat="46.35264" lon="-0.55861">
        <ele>44</ele>
        <time>2013-10-24T14:40:42Z</time>
      </trkpt>
      <trkpt lat="46.35264" lon="-0.55869">
        <ele>44</ele>
        <time>2013-10-24T14:40:47Z</time>
      </trkpt>
      <trkpt lat="46.35264" lon="-0.55876">
        <ele>43</ele>
        <time>2013-10-24T14:40:52Z</time>
      </trkpt>
      <trkpt lat="46.35266" lon="-0.55881">
        <ele>43</ele>
        <time>2013-10-24T14:40:57Z</time>
      </trkpt>
      <trkpt lat="46.35266" lon="-0.55882">
        <ele>43</ele>
        <time>2013-10-24T14:41:02Z</time>
      </trkpt>
      <trkpt lat="46.35264" lon="-0.55891">
        <ele>43</ele>
        <time>2013-10-24T14:41:07Z</time>
      </trkpt>
      <trkpt lat="46.35266" lon="-0.55897">
        <ele>43</ele>
        <time>2013-10-24T14:41:12Z</time>
      </trkpt>
      <trkpt lat="46.35268" lon="-0.55904">
        <ele>43</ele>
        <time>2013-10-24T14:41:17Z</time>
      </trkpt>
      <trkpt lat="46.35268" lon="-0.55909">
        <ele>43</ele>
        <time>2013-10-24T14:41:22Z</time>
      </trkpt>
      <trkpt lat="46.35266" lon="-0.55919">
        <ele>43</ele>
        <time>2013-10-24T14:41:27Z</time>
      </trkpt>
      <trkpt lat="46.35268" lon="-0.55923">
        <ele>43</ele>
        <time>2013-10-24T14:41:32Z</time>
      </trkpt>
      <trkpt lat="46.35268" lon="-0.55921">
        <ele>43</ele>
        <time>2013-10-24T14:41:37Z</time>
      </trkpt>
      <trkpt lat="46.35268" lon="-0.55926">
        <ele>43</ele>
        <time>2013-10-24T14:41:42Z</time>
      </trkpt>
      <trkpt lat="46.35269" lon="-0.55931">
        <ele>43</ele>
        <time>2013-10-24T14:41:47Z</time>
      </trkpt>
      <trkpt lat="46.35268" lon="-0.55937">
        <ele>43</ele>
        <time>2013-10-24T14:41:52Z</time>
      </trkpt>
      <trkpt lat="46.35267" lon="-0.55937">
        <ele>43</ele>
        <time>2013-10-24T14:41:57Z</time>
      </trkpt>
      <trkpt lat="46.35267" lon="-0.5594">
        <ele>43</ele>
        <time>2013-10-24T14:42:02Z</time>
      </trkpt>
      <trkpt lat="46.35266" lon="-0.55946">
        <ele>43</ele>
        <time>2013-10-24T14:42:07Z</time>
      </trkpt>
      <trkpt lat="46.35264" lon="-0.55958">
        <ele>43</ele>
        <time>2013-10-24T14:42:12Z</time>
      </trkpt>
      <trkpt lat="46.35266" lon="-0.55962">
        <ele>41</ele>
        <time>2013-10-24T14:42:17Z</time>
      </trkpt>
      <trkpt lat="46.35265" lon="-0.55972">
        <ele>41</ele>
        <time>2013-10-24T14:42:22Z</time>
      </trkpt>
      <trkpt lat="46.35264" lon="-0.55983">
        <ele>41</ele>
        <time>2013-10-24T14:42:27Z</time>
      </trkpt>
      <trkpt lat="46.35262" lon="-0.55994">
        <ele>41</ele>
        <time>2013-10-24T14:42:32Z</time>
      </trkpt>
      <trkpt lat="46.35263" lon="-0.55999">
        <ele>41</ele>
        <time>2013-10-24T14:42:37Z</time>
      </trkpt>
      <trkpt lat="46.35262" lon="-0.56004">
        <ele>41</ele>
        <time>2013-10-24T14:42:42Z</time>
      </trkpt>
      <trkpt lat="46.35262" lon="-0.5601">
        <ele>41</ele>
        <time>2013-10-24T14:42:47Z</time>
      </trkpt>
      <trkpt lat="46.35262" lon="-0.56015">
        <ele>41</ele>
        <time>2013-10-24T14:42:52Z</time>
      </trkpt>
      <trkpt lat="46.35263" lon="-0.5602">
        <ele>41</ele>
        <time>2013-10-24T14:42:57Z</time>
      </trkpt>
      <trkpt lat="46.35264" lon="-0.56028">
        <ele>41</ele>
        <time>2013-10-24T14:43:02Z</time>
      </trkpt>
      <trkpt lat="46.35266" lon="-0.56036">
        <ele>41</ele>
        <time>2013-10-24T14:43:07Z</time>
      </trkpt>
      <trkpt lat="46.35267" lon="-0.56043">
        <ele>39</ele>
        <time>2013-10-24T14:43:12Z</time>
      </trkpt>
      <trkpt lat="46.35269" lon="-0.56051">
        <ele>39</ele>
        <time>2013-10-24T14:43:17Z</time>
      </trkpt>
      <trkpt lat="46.35271" lon="-0.56059">
        <ele>39</ele>
        <time>2013-10-24T14:43:22Z</time>
      </trkpt>
      <trkpt lat="46.35272" lon="-0.56067">
        <ele>39</ele>
        <time>2013-10-24T14:43:27Z</time>
      </trkpt>
      <trkpt lat="46.35273" lon="-0.56075">
        <ele>39</ele>
        <time>2013-10-24T14:43:32Z</time>
      </trkpt>
      <trkpt lat="46.35274" lon="-0.56083">
        <ele>39</ele>
        <time>2013-10-24T14:43:37Z</time>
      </trkpt>
      <trkpt lat="46.35275" lon="-0.56091">
        <ele>39</ele>
        <time>2013-10-24T14:43:42Z</time>
      </trkpt>
      <trkpt lat="46.35276" lon="-0.56099">
        <ele>39</ele>
        <time>2013-10-24T14:43:47Z</time>
      </trkpt>
      <trkpt lat="46.35276" lon="-0.56102">
        <ele>39</ele>
        <time>2013-10-24T14:43:52Z</time>
      </trkpt>
      <trkpt lat="46.35278" lon="-0.56105">
        <ele>39</ele>
        <time>2013-10-24T14:43:57Z</time>
      </trkpt>
      <trkpt lat="46.35278" lon="-0.56113">
        <ele>39</ele>
        <time>2013-10-24T14:44:02Z</time>
      </trkpt>
      <trkpt lat="46.3528" lon="-0.56117">
        <ele>39</ele>
        <time>2013-10-24T14:44:07Z</time>
      </trkpt>
      <trkpt lat="46.35282" lon="-0.56121">
        <ele>39</ele>
        <time>2013-10-24T14:44:12Z</time>
      </trkpt>
      <trkpt lat="46.35286" lon="-0.56118">
        <ele>39</ele>
        <time>2013-10-24T14:44:17Z</time>
      </trkpt>
      <trkpt lat="46.35288" lon="-0.56121">
        <ele>39</ele>
        <time>2013-10-24T14:44:22Z</time>
      </trkpt>
      <trkpt lat="46.3529" lon="-0.56127">
        <ele>37</ele>
        <time>2013-10-24T14:44:27Z</time>
      </trkpt>
      <trkpt lat="46.35294" lon="-0.56126">
        <ele>37</ele>
        <time>2013-10-24T14:44:32Z</time>
      </trkpt>
      <trkpt lat="46.35296" lon="-0.56129">
        <ele>37</ele>
        <time>2013-10-24T14:44:37Z</time>
      </trkpt>
      <trkpt lat="46.35298" lon="-0.56134">
        <ele>37</ele>
        <time>2013-10-24T14:44:42Z</time>
      </trkpt>
      <trkpt lat="46.35298" lon="-0.56148">
        <ele>37</ele>
        <time>2013-10-24T14:44:47Z</time>
      </trkpt>
      <trkpt lat="46.35298" lon="-0.5616">
        <ele>37</ele>
        <time>2013-10-24T14:44:52Z</time>
      </trkpt>
      <trkpt lat="46.35299" lon="-0.56166">
        <ele>37</ele>
        <time>2013-10-24T14:44:57Z</time>
      </trkpt>
      <trkpt lat="46.35301" lon="-0.56169">
        <ele>37</ele>
        <time>2013-10-24T14:45:02Z</time>
      </trkpt>
      <trkpt lat="46.35305" lon="-0.56177">
        <ele>37</ele>
        <time>2013-10-24T14:45:07Z</time>
      </trkpt>
      <trkpt lat="46.35308" lon="-0.56178">
        <ele>37</ele>
        <time>2013-10-24T14:45:12Z</time>
      </trkpt>
      <trkpt lat="46.35308" lon="-0.56178">
        <ele>37</ele>
        <time>2013-10-24T14:45:17Z</time>
      </trkpt>
      <trkpt lat="46.35315" lon="-0.56179">
        <ele>37</ele>
        <time>2013-10-24T14:45:22Z</time>
      </trkpt>
      <trkpt lat="46.35315" lon="-0.56191">
        <ele>37</ele>
        <time>2013-10-24T14:45:27Z</time>
      </trkpt>
      <trkpt lat="46.35315" lon="-0.562">
        <ele>37</ele>
        <time>2013-10-24T14:45:32Z</time>
      </trkpt>
      <trkpt lat="46.35316" lon="-0.56208">
        <ele>37</ele>
        <time>2013-10-24T14:45:37Z</time>
      </trkpt>
      <trkpt lat="46.35317" lon="-0.56214">
        <ele>34</ele>
        <time>2013-10-24T14:45:42Z</time>
      </trkpt>
      <trkpt lat="46.35319" lon="-0.56221">
        <ele>34</ele>
        <time>2013-10-24T14:45:47Z</time>
      </trkpt>
      <trkpt lat="46.35321" lon="-0.56229">
        <ele>34</ele>
        <time>2013-10-24T14:45:52Z</time>
      </trkpt>
      <trkpt lat="46.35323" lon="-0.56235">
        <ele>34</ele>
        <time>2013-10-24T14:45:57Z</time>
      </trkpt>
      <trkpt lat="46.35324" lon="-0.56241">
        <ele>34</ele>
        <time>2013-10-24T14:46:02Z</time>
      </trkpt>
      <trkpt lat="46.35326" lon="-0.56243">
        <ele>34</ele>
        <time>2013-10-24T14:46:07Z</time>
      </trkpt>
      <trkpt lat="46.35328" lon="-0.56249">
        <ele>34</ele>
        <time>2013-10-24T14:46:12Z</time>
      </trkpt>
      <trkpt lat="46.35328" lon="-0.5626">
        <ele>34</ele>
        <time>2013-10-24T14:46:17Z</time>
      </trkpt>
      <trkpt lat="46.35327" lon="-0.56267">
        <ele>34</ele>
        <time>2013-10-24T14:46:22Z</time>
      </trkpt>
      <trkpt lat="46.35325" lon="-0.56275">
        <ele>34</ele>
        <time>2013-10-24T14:46:27Z</time>
      </trkpt>
      <trkpt lat="46.35325" lon="-0.56287">
        <ele>34</ele>
        <time>2013-10-24T14:46:32Z</time>
      </trkpt>
      <trkpt lat="46.35327" lon="-0.56291">
        <ele>34</ele>
        <time>2013-10-24T14:46:37Z</time>
      </trkpt>
      <trkpt lat="46.35325" lon="-0.56295">
        <ele>33</ele>
        <time>2013-10-24T14:46:42Z</time>
      </trkpt>
      <trkpt lat="46.35329" lon="-0.56294">
        <ele>33</ele>
        <time>2013-10-24T14:46:47Z</time>
      </trkpt>
      <trkpt lat="46.35328" lon="-0.56302">
        <ele>33</ele>
        <time>2013-10-24T14:46:52Z</time>
      </trkpt>
      <trkpt lat="46.35331" lon="-0.56306">
        <ele>33</ele>
        <time>2013-10-24T14:46:57Z</time>
      </trkpt>
      <trkpt lat="46.3533" lon="-0.56316">
        <ele>33</ele>
        <time>2013-10-24T14:47:02Z</time>
      </trkpt>
      <trkpt lat="46.35329" lon="-0.56323">
        <ele>33</ele>
        <time>2013-10-24T14:47:07Z</time>
      </trkpt>
      <trkpt lat="46.35327" lon="-0.56332">
        <ele>33</ele>
        <time>2013-10-24T14:47:12Z</time>
      </trkpt>
      <trkpt lat="46.3533" lon="-0.5633">
        <ele>33</ele>
        <time>2013-10-24T14:47:17Z</time>
      </trkpt>
      <trkpt lat="46.35329" lon="-0.56336">
        <ele>33</ele>
        <time>2013-10-24T14:47:22Z</time>
      </trkpt>
      <trkpt lat="46.35327" lon="-0.56343">
        <ele>33</ele>
        <time>2013-10-24T14:47:27Z</time>
      </trkpt>
      <trkpt lat="46.35324" lon="-0.56352">
        <ele>33</ele>
        <time>2013-10-24T14:47:32Z</time>
      </trkpt>
      <trkpt lat="46.35323" lon="-0.56359">
        <ele>33</ele>
        <time>2013-10-24T14:47:37Z</time>
      </trkpt>
      <trkpt lat="46.35322" lon="-0.56366">
        <ele>33</ele>
        <time>2013-10-24T14:47:42Z</time>
      </trkpt>
      <trkpt lat="46.35325" lon="-0.56366">
        <ele>33</ele>
        <time>2013-10-24T14:47:52Z</time>
      </trkpt>
      <trkpt lat="46.3532" lon="-0.56374">
        <ele>33</ele>
        <time>2013-10-24T14:47:57Z</time>
      </trkpt>
      <trkpt lat="46.3532" lon="-0.56375">
        <ele>33</ele>
        <time>2013-10-24T14:48:02Z</time>
      </trkpt>
      <trkpt lat="46.35319" lon="-0.56376">
        <ele>32</ele>
        <time>2013-10-24T14:48:07Z</time>
      </trkpt>
      <trkpt lat="46.3532" lon="-0.56376">
        <ele>32</ele>
        <time>2013-10-24T14:48:17Z</time>
      </trkpt>
      <trkpt lat="46.3532" lon="-0.56377">
        <ele>32</ele>
        <time>2013-10-24T14:48:27Z</time>
      </trkpt>
      <trkpt lat="46.3532" lon="-0.5638">
        <ele>32</ele>
        <time>2013-10-24T14:48:32Z</time>
      </trkpt>
      <trkpt lat="46.35319" lon="-0.56379">
        <ele>32</ele>
        <time>2013-10-24T14:48:37Z</time>
      </trkpt>
      <trkpt lat="46.35319" lon="-0.56384">
        <ele>32</ele>
        <time>2013-10-24T14:48:42Z</time>
      </trkpt>
      <trkpt lat="46.35321" lon="-0.5639">
        <ele>32</ele>
        <time>2013-10-24T14:48:47Z</time>
      </trkpt>
      <trkpt lat="46.35324" lon="-0.56392">
        <ele>32</ele>
        <time>2013-10-24T14:48:52Z</time>
      </trkpt>
      <trkpt lat="46.3533" lon="-0.56389">
        <ele>32</ele>
        <time>2013-10-24T14:48:57Z</time>
      </trkpt>
      <trkpt lat="46.35334" lon="-0.56386">
        <ele>32</ele>
        <time>2013-10-24T14:49:02Z</time>
      </trkpt>
      <trkpt lat="46.3534" lon="-0.56384">
        <ele>32</ele>
        <time>2013-10-24T14:49:07Z</time>
      </trkpt>
      <trkpt lat="46.35344" lon="-0.5638">
        <ele>32</ele>
        <time>2013-10-24T14:49:12Z</time>
      </trkpt>
      <trkpt lat="46.35349" lon="-0.56377">
        <ele>32</ele>
        <time>2013-10-24T14:49:17Z</time>
      </trkpt>
      <trkpt lat="46.35353" lon="-0.56375">
        <ele>33</ele>
        <time>2013-10-24T14:49:22Z</time>
      </trkpt>
      <trkpt lat="46.35357" lon="-0.56372">
        <ele>33</ele>
        <time>2013-10-24T14:49:27Z</time>
      </trkpt>
      <trkpt lat="46.35364" lon="-0.56369">
        <ele>33</ele>
        <time>2013-10-24T14:49:32Z</time>
      </trkpt>
      <trkpt lat="46.35368" lon="-0.56364">
        <ele>33</ele>
        <time>2013-10-24T14:49:37Z</time>
      </trkpt>
      <trkpt lat="46.35371" lon="-0.56362">
        <ele>33</ele>
        <time>2013-10-24T14:49:42Z</time>
      </trkpt>
      <trkpt lat="46.35371" lon="-0.56363">
        <ele>33</ele>
        <time>2013-10-24T14:49:47Z</time>
      </trkpt>
      <trkpt lat="46.35375" lon="-0.5636">
        <ele>33</ele>
        <time>2013-10-24T14:49:52Z</time>
      </trkpt>
      <trkpt lat="46.35379" lon="-0.56356">
        <ele>38</ele>
        <time>2013-10-24T14:49:57Z</time>
      </trkpt>
      <trkpt lat="46.35384" lon="-0.56353">
        <ele>38</ele>
        <time>2013-10-24T14:50:02Z</time>
      </trkpt>
      <trkpt lat="46.35386" lon="-0.56349">
        <ele>38</ele>
        <time>2013-10-24T14:50:07Z</time>
      </trkpt>
      <trkpt lat="46.35391" lon="-0.56347">
        <ele>38</ele>
        <time>2013-10-24T14:50:12Z</time>
      </trkpt>
      <trkpt lat="46.35395" lon="-0.56345">
        <ele>38</ele>
        <time>2013-10-24T14:50:17Z</time>
      </trkpt>
      <trkpt lat="46.35397" lon="-0.56342">
        <ele>38</ele>
        <time>2013-10-24T14:50:22Z</time>
      </trkpt>
      <trkpt lat="46.35401" lon="-0.56339">
        <ele>38</ele>
        <time>2013-10-24T14:50:27Z</time>
      </trkpt>
      <trkpt lat="46.35405" lon="-0.56336">
        <ele>38</ele>
        <time>2013-10-24T14:50:32Z</time>
      </trkpt>
      <trkpt lat="46.3541" lon="-0.56332">
        <ele>38</ele>
        <time>2013-10-24T14:50:37Z</time>
      </trkpt>
      <trkpt lat="46.35416" lon="-0.56329">
        <ele>38</ele>
        <time>2013-10-24T14:50:42Z</time>
      </trkpt>
      <trkpt lat="46.3542" lon="-0.56328">
        <ele>38</ele>
        <time>2013-10-24T14:50:47Z</time>
      </trkpt>
      <trkpt lat="46.35422" lon="-0.56329">
        <ele>38</ele>
        <time>2013-10-24T14:50:52Z</time>
      </trkpt>
      <trkpt lat="46.35423" lon="-0.56326">
        <ele>38</ele>
        <time>2013-10-24T14:50:57Z</time>
      </trkpt>
      <trkpt lat="46.35423" lon="-0.56327">
        <ele>38</ele>
        <time>2013-10-24T14:51:02Z</time>
      </trkpt>
      <trkpt lat="46.35426" lon="-0.56325">
        <ele>38</ele>
        <time>2013-10-24T14:51:07Z</time>
      </trkpt>
      <trkpt lat="46.3543" lon="-0.56323">
        <ele>38</ele>
        <time>2013-10-24T14:51:12Z</time>
      </trkpt>
      <trkpt lat="46.35434" lon="-0.5632">
        <ele>38</ele>
        <time>2013-10-24T14:51:17Z</time>
      </trkpt>
      <trkpt lat="46.35439" lon="-0.56318">
        <ele>38</ele>
        <time>2013-10-24T14:51:22Z</time>
      </trkpt>
      <trkpt lat="46.35444" lon="-0.56315">
        <ele>38</ele>
        <time>2013-10-24T14:51:27Z</time>
      </trkpt>
      <trkpt lat="46.3545" lon="-0.56311">
        <ele>38</ele>
        <time>2013-10-24T14:51:32Z</time>
      </trkpt>
      <trkpt lat="46.35456" lon="-0.56309">
        <ele>38</ele>
        <time>2013-10-24T14:51:37Z</time>
      </trkpt>
      <trkpt lat="46.35461" lon="-0.56308">
        <ele>41</ele>
        <time>2013-10-24T14:51:42Z</time>
      </trkpt>
      <trkpt lat="46.35466" lon="-0.56306">
        <ele>41</ele>
        <time>2013-10-24T14:51:47Z</time>
      </trkpt>
      <trkpt lat="46.3547" lon="-0.56305">
        <ele>41</ele>
        <time>2013-10-24T14:51:52Z</time>
      </trkpt>
      <trkpt lat="46.35475" lon="-0.56305">
        <ele>41</ele>
        <time>2013-10-24T14:51:57Z</time>
      </trkpt>
      <trkpt lat="46.35481" lon="-0.56303">
        <ele>41</ele>
        <time>2013-10-24T14:52:02Z</time>
      </trkpt>
      <trkpt lat="46.35487" lon="-0.56303">
        <ele>41</ele>
        <time>2013-10-24T14:52:07Z</time>
      </trkpt>
      <trkpt lat="46.35493" lon="-0.56303">
        <ele>41</ele>
        <time>2013-10-24T14:52:12Z</time>
      </trkpt>
      <trkpt lat="46.35499" lon="-0.56305">
        <ele>41</ele>
        <time>2013-10-24T14:52:17Z</time>
      </trkpt>
      <trkpt lat="46.35505" lon="-0.56305">
        <ele>41</ele>
        <time>2013-10-24T14:52:22Z</time>
      </trkpt>
      <trkpt lat="46.3551" lon="-0.56304">
        <ele>41</ele>
        <time>2013-10-24T14:52:27Z</time>
      </trkpt>
      <trkpt lat="46.35513" lon="-0.56307">
        <ele>41</ele>
        <time>2013-10-24T14:52:32Z</time>
      </trkpt>
      <trkpt lat="46.35518" lon="-0.56308">
        <ele>41</ele>
        <time>2013-10-24T14:52:37Z</time>
      </trkpt>
      <trkpt lat="46.35523" lon="-0.56305">
        <ele>41</ele>
        <time>2013-10-24T14:52:42Z</time>
      </trkpt>
      <trkpt lat="46.35527" lon="-0.56307">
        <ele>41</ele>
        <time>2013-10-24T14:52:47Z</time>
      </trkpt>
      <trkpt lat="46.35533" lon="-0.56307">
        <ele>41</ele>
        <time>2013-10-24T14:52:52Z</time>
      </trkpt>
      <trkpt lat="46.35538" lon="-0.56307">
        <ele>41</ele>
        <time>2013-10-24T14:52:57Z</time>
      </trkpt>
      <trkpt lat="46.35543" lon="-0.5631">
        <ele>45</ele>
        <time>2013-10-24T14:53:02Z</time>
      </trkpt>
      <trkpt lat="46.3555" lon="-0.5631">
        <ele>45</ele>
        <time>2013-10-24T14:53:07Z</time>
      </trkpt>
      <trkpt lat="46.35557" lon="-0.56309">
        <ele>45</ele>
        <time>2013-10-24T14:53:12Z</time>
      </trkpt>
      <trkpt lat="46.35565" lon="-0.56307">
        <ele>45</ele>
        <time>2013-10-24T14:53:17Z</time>
      </trkpt>
      <trkpt lat="46.35571" lon="-0.56304">
        <ele>45</ele>
        <time>2013-10-24T14:53:22Z</time>
      </trkpt>
      <trkpt lat="46.35576" lon="-0.56302">
        <ele>45</ele>
        <time>2013-10-24T14:53:27Z</time>
      </trkpt>
      <trkpt lat="46.35582" lon="-0.563">
        <ele>45</ele>
        <time>2013-10-24T14:53:32Z</time>
      </trkpt>
      <trkpt lat="46.35587" lon="-0.56298">
        <ele>45</ele>
        <time>2013-10-24T14:53:37Z</time>
      </trkpt>
      <trkpt lat="46.35593" lon="-0.56296">
        <ele>45</ele>
        <time>2013-10-24T14:53:42Z</time>
      </trkpt>
      <trkpt lat="46.35597" lon="-0.56294">
        <ele>45</ele>
        <time>2013-10-24T14:53:47Z</time>
      </trkpt>
      <trkpt lat="46.35601" lon="-0.56291">
        <ele>45</ele>
        <time>2013-10-24T14:53:52Z</time>
      </trkpt>
      <trkpt lat="46.35606" lon="-0.56289">
        <ele>45</ele>
        <time>2013-10-24T14:53:57Z</time>
      </trkpt>
      <trkpt lat="46.35611" lon="-0.56287">
        <ele>45</ele>
        <time>2013-10-24T14:54:02Z</time>
      </trkpt>
      <trkpt lat="46.35616" lon="-0.56286">
        <ele>45</ele>
        <time>2013-10-24T14:54:07Z</time>
      </trkpt>
      <trkpt lat="46.35621" lon="-0.56283">
        <ele>45</ele>
        <time>2013-10-24T14:54:12Z</time>
      </trkpt>
      <trkpt lat="46.35627" lon="-0.56282">
        <ele>48</ele>
        <time>2013-10-24T14:54:17Z</time>
      </trkpt>
      <trkpt lat="46.35631" lon="-0.5628">
        <ele>48</ele>
        <time>2013-10-24T14:54:22Z</time>
      </trkpt>
      <trkpt lat="46.35636" lon="-0.56278">
        <ele>48</ele>
        <time>2013-10-24T14:54:27Z</time>
      </trkpt>
      <trkpt lat="46.35639" lon="-0.56276">
        <ele>48</ele>
        <time>2013-10-24T14:54:32Z</time>
      </trkpt>
      <trkpt lat="46.35644" lon="-0.56274">
        <ele>48</ele>
        <time>2013-10-24T14:54:37Z</time>
      </trkpt>
      <trkpt lat="46.35649" lon="-0.56272">
        <ele>48</ele>
        <time>2013-10-24T14:54:42Z</time>
      </trkpt>
      <trkpt lat="46.35654" lon="-0.56269">
        <ele>48</ele>
        <time>2013-10-24T14:54:47Z</time>
      </trkpt>
      <trkpt lat="46.35659" lon="-0.56267">
        <ele>48</ele>
        <time>2013-10-24T14:54:52Z</time>
      </trkpt>
      <trkpt lat="46.35663" lon="-0.56266">
        <ele>48</ele>
        <time>2013-10-24T14:54:57Z</time>
      </trkpt>
      <trkpt lat="46.35668" lon="-0.56264">
        <ele>48</ele>
        <time>2013-10-24T14:55:02Z</time>
      </trkpt>
      <trkpt lat="46.35673" lon="-0.56262">
        <ele>48</ele>
        <time>2013-10-24T14:55:07Z</time>
      </trkpt>
      <trkpt lat="46.35677" lon="-0.5626">
        <ele>48</ele>
        <time>2013-10-24T14:55:12Z</time>
      </trkpt>
      <trkpt lat="46.35682" lon="-0.56258">
        <ele>48</ele>
        <time>2013-10-24T14:55:17Z</time>
      </trkpt>
      <trkpt lat="46.35687" lon="-0.56256">
        <ele>48</ele>
        <time>2013-10-24T14:55:22Z</time>
      </trkpt>
      <trkpt lat="46.35691" lon="-0.56255">
        <ele>48</ele>
        <time>2013-10-24T14:55:27Z</time>
      </trkpt>
      <trkpt lat="46.35696" lon="-0.56252">
        <ele>48</ele>
        <time>2013-10-24T14:55:32Z</time>
      </trkpt>
      <trkpt lat="46.35701" lon="-0.56251">
        <ele>48</ele>
        <time>2013-10-24T14:55:37Z</time>
      </trkpt>
      <trkpt lat="46.35706" lon="-0.5625">
        <ele>48</ele>
        <time>2013-10-24T14:55:42Z</time>
      </trkpt>
      <trkpt lat="46.35712" lon="-0.56249">
        <ele>50</ele>
        <time>2013-10-24T14:55:47Z</time>
      </trkpt>
      <trkpt lat="46.35718" lon="-0.56247">
        <ele>50</ele>
        <time>2013-10-24T14:55:52Z</time>
      </trkpt>
      <trkpt lat="46.35723" lon="-0.56245">
        <ele>50</ele>
        <time>2013-10-24T14:55:57Z</time>
      </trkpt>
      <trkpt lat="46.35729" lon="-0.56244">
        <ele>50</ele>
        <time>2013-10-24T14:56:02Z</time>
      </trkpt>
      <trkpt lat="46.35734" lon="-0.56243">
        <ele>50</ele>
        <time>2013-10-24T14:56:07Z</time>
      </trkpt>
      <trkpt lat="46.35738" lon="-0.56241">
        <ele>50</ele>
        <time>2013-10-24T14:56:12Z</time>
      </trkpt>
      <trkpt lat="46.35742" lon="-0.56239">
        <ele>50</ele>
        <time>2013-10-24T14:56:17Z</time>
      </trkpt>
      <trkpt lat="46.35747" lon="-0.56238">
        <ele>50</ele>
        <time>2013-10-24T14:56:22Z</time>
      </trkpt>
      <trkpt lat="46.35752" lon="-0.56237">
        <ele>50</ele>
        <time>2013-10-24T14:56:27Z</time>
      </trkpt>
      <trkpt lat="46.35751" lon="-0.56237">
        <ele>50</ele>
        <time>2013-10-24T14:56:32Z</time>
      </trkpt>
      <trkpt lat="46.35756" lon="-0.56237">
        <ele>50</ele>
        <time>2013-10-24T14:56:37Z</time>
      </trkpt>
      <trkpt lat="46.35762" lon="-0.56236">
        <ele>50</ele>
        <time>2013-10-24T14:56:42Z</time>
      </trkpt>
      <trkpt lat="46.35766" lon="-0.56235">
        <ele>50</ele>
        <time>2013-10-24T14:56:47Z</time>
      </trkpt>
      <trkpt lat="46.3577" lon="-0.56235">
        <ele>50</ele>
        <time>2013-10-24T14:56:52Z</time>
      </trkpt>
      <trkpt lat="46.35775" lon="-0.56235">
        <ele>50</ele>
        <time>2013-10-24T14:56:57Z</time>
      </trkpt>
      <trkpt lat="46.3578" lon="-0.56233">
        <ele>50</ele>
        <time>2013-10-24T14:57:02Z</time>
      </trkpt>
      <trkpt lat="46.35785" lon="-0.56232">
        <ele>50</ele>
        <time>2013-10-24T14:57:07Z</time>
      </trkpt>
      <trkpt lat="46.35791" lon="-0.56231">
        <ele>50</ele>
        <time>2013-10-24T14:57:12Z</time>
      </trkpt>
      <trkpt lat="46.35796" lon="-0.56232">
        <ele>49</ele>
        <time>2013-10-24T14:57:17Z</time>
      </trkpt>
      <trkpt lat="46.35802" lon="-0.56231">
        <ele>49</ele>
        <time>2013-10-24T14:57:22Z</time>
      </trkpt>
      <trkpt lat="46.35808" lon="-0.56231">
        <ele>49</ele>
        <time>2013-10-24T14:57:27Z</time>
      </trkpt>
      <trkpt lat="46.35812" lon="-0.5623">
        <ele>49</ele>
        <time>2013-10-24T14:57:32Z</time>
      </trkpt>
      <trkpt lat="46.35815" lon="-0.56229">
        <ele>49</ele>
        <time>2013-10-24T14:57:37Z</time>
      </trkpt>
      <trkpt lat="46.3582" lon="-0.56228">
        <ele>49</ele>
        <time>2013-10-24T14:57:42Z</time>
      </trkpt>
      <trkpt lat="46.35825" lon="-0.56227">
        <ele>49</ele>
        <time>2013-10-24T14:57:47Z</time>
      </trkpt>
      <trkpt lat="46.3583" lon="-0.56227">
        <ele>49</ele>
        <time>2013-10-24T14:57:52Z</time>
      </trkpt>
      <trkpt lat="46.35835" lon="-0.56226">
        <ele>49</ele>
        <time>2013-10-24T14:57:57Z</time>
      </trkpt>
      <trkpt lat="46.35839" lon="-0.56224">
        <ele>49</ele>
        <time>2013-10-24T14:58:02Z</time>
      </trkpt>
      <trkpt lat="46.35845" lon="-0.56224">
        <ele>49</ele>
        <time>2013-10-24T14:58:07Z</time>
      </trkpt>
      <trkpt lat="46.35849" lon="-0.56222">
        <ele>49</ele>
        <time>2013-10-24T14:58:12Z</time>
      </trkpt>
      <trkpt lat="46.35854" lon="-0.56222">
        <ele>49</ele>
        <time>2013-10-24T14:58:17Z</time>
      </trkpt>
      <trkpt lat="46.35859" lon="-0.56221">
        <ele>49</ele>
        <time>2013-10-24T14:58:22Z</time>
      </trkpt>
      <trkpt lat="46.35864" lon="-0.5622">
        <ele>49</ele>
        <time>2013-10-24T14:58:27Z</time>
      </trkpt>
      <trkpt lat="46.35867" lon="-0.56218">
        <ele>49</ele>
        <time>2013-10-24T14:58:32Z</time>
      </trkpt>
      <trkpt lat="46.35873" lon="-0.5622">
        <ele>49</ele>
        <time>2013-10-24T14:58:37Z</time>
      </trkpt>
      <trkpt lat="46.35877" lon="-0.5622">
        <ele>46</ele>
        <time>2013-10-24T14:58:42Z</time>
      </trkpt>
      <trkpt lat="46.35882" lon="-0.56218">
        <ele>46</ele>
        <time>2013-10-24T14:58:47Z</time>
      </trkpt>
      <trkpt lat="46.35888" lon="-0.56217">
        <ele>46</ele>
        <time>2013-10-24T14:58:52Z</time>
      </trkpt>
      <trkpt lat="46.35893" lon="-0.56216">
        <ele>46</ele>
        <time>2013-10-24T14:58:57Z</time>
      </trkpt>
      <trkpt lat="46.35899" lon="-0.56215">
        <ele>46</ele>
        <time>2013-10-24T14:59:02Z</time>
      </trkpt>
      <trkpt lat="46.35904" lon="-0.56215">
        <ele>46</ele>
        <time>2013-10-24T14:59:07Z</time>
      </trkpt>
      <trkpt lat="46.35909" lon="-0.56213">
        <ele>46</ele>
        <time>2013-10-24T14:59:12Z</time>
      </trkpt>
      <trkpt lat="46.35914" lon="-0.56213">
        <ele>46</ele>
        <time>2013-10-24T14:59:17Z</time>
      </trkpt>
      <trkpt lat="46.35919" lon="-0.56211">
        <ele>46</ele>
        <time>2013-10-24T14:59:22Z</time>
      </trkpt>
      <trkpt lat="46.35924" lon="-0.56211">
        <ele>46</ele>
        <time>2013-10-24T14:59:27Z</time>
      </trkpt>
      <trkpt lat="46.35928" lon="-0.5621">
        <ele>46</ele>
        <time>2013-10-24T14:59:32Z</time>
      </trkpt>
      <trkpt lat="46.35933" lon="-0.56208">
        <ele>48</ele>
        <time>2013-10-24T14:59:37Z</time>
      </trkpt>
      <trkpt lat="46.35939" lon="-0.56206">
        <ele>48</ele>
        <time>2013-10-24T14:59:42Z</time>
      </trkpt>
      <trkpt lat="46.35945" lon="-0.56206">
        <ele>48</ele>
        <time>2013-10-24T14:59:47Z</time>
      </trkpt>
      <trkpt lat="46.3595" lon="-0.56204">
        <ele>48</ele>
        <time>2013-10-24T14:59:52Z</time>
      </trkpt>
      <trkpt lat="46.35956" lon="-0.56202">
        <ele>48</ele>
        <time>2013-10-24T14:59:57Z</time>
      </trkpt>
      <trkpt lat="46.35962" lon="-0.562">
        <ele>44</ele>
        <time>2013-10-24T15:00:02Z</time>
      </trkpt>
      <trkpt lat="46.35966" lon="-0.562">
        <ele>44</ele>
        <time>2013-10-24T15:00:07Z</time>
      </trkpt>
      <trkpt lat="46.3597" lon="-0.56198">
        <ele>44</ele>
        <time>2013-10-24T15:00:12Z</time>
      </trkpt>
      <trkpt lat="46.35975" lon="-0.56196">
        <ele>44</ele>
        <time>2013-10-24T15:00:17Z</time>
      </trkpt>
      <trkpt lat="46.35979" lon="-0.56195">
        <ele>44</ele>
        <time>2013-10-24T15:00:22Z</time>
      </trkpt>
      <trkpt lat="46.35985" lon="-0.56193">
        <ele>44</ele>
        <time>2013-10-24T15:00:27Z</time>
      </trkpt>
      <trkpt lat="46.3599" lon="-0.56192">
        <ele>44</ele>
        <time>2013-10-24T15:00:32Z</time>
      </trkpt>
      <trkpt lat="46.35994" lon="-0.56189">
        <ele>44</ele>
        <time>2013-10-24T15:00:37Z</time>
      </trkpt>
      <trkpt lat="46.36" lon="-0.56187">
        <ele>44</ele>
        <time>2013-10-24T15:00:42Z</time>
      </trkpt>
      <trkpt lat="46.36004" lon="-0.56184">
        <ele>44</ele>
        <time>2013-10-24T15:00:47Z</time>
      </trkpt>
      <trkpt lat="46.36007" lon="-0.56183">
        <ele>44</ele>
        <time>2013-10-24T15:00:52Z</time>
      </trkpt>
      <trkpt lat="46.36012" lon="-0.56182">
        <ele>44</ele>
        <time>2013-10-24T15:00:57Z</time>
      </trkpt>
      <trkpt lat="46.36016" lon="-0.5618">
        <ele>44</ele>
        <time>2013-10-24T15:01:02Z</time>
      </trkpt>
      <trkpt lat="46.36022" lon="-0.5618">
        <ele>44</ele>
        <time>2013-10-24T15:01:07Z</time>
      </trkpt>
      <trkpt lat="46.36027" lon="-0.56179">
        <ele>44</ele>
        <time>2013-10-24T15:01:12Z</time>
      </trkpt>
      <trkpt lat="46.36034" lon="-0.56177">
        <ele>44</ele>
        <time>2013-10-24T15:01:17Z</time>
      </trkpt>
      <trkpt lat="46.36038" lon="-0.56176">
        <ele>44</ele>
        <time>2013-10-24T15:01:22Z</time>
      </trkpt>
      <trkpt lat="46.36043" lon="-0.56174">
        <ele>46</ele>
        <time>2013-10-24T15:01:27Z</time>
      </trkpt>
      <trkpt lat="46.36047" lon="-0.56172">
        <ele>46</ele>
        <time>2013-10-24T15:01:32Z</time>
      </trkpt>
      <trkpt lat="46.36052" lon="-0.56171">
        <ele>46</ele>
        <time>2013-10-24T15:01:37Z</time>
      </trkpt>
      <trkpt lat="46.36057" lon="-0.56168">
        <ele>46</ele>
        <time>2013-10-24T15:01:42Z</time>
      </trkpt>
      <trkpt lat="46.36065" lon="-0.56164">
        <ele>46</ele>
        <time>2013-10-24T15:01:47Z</time>
      </trkpt>
      <trkpt lat="46.36071" lon="-0.56159">
        <ele>46</ele>
        <time>2013-10-24T15:01:52Z</time>
      </trkpt>
      <trkpt lat="46.36073" lon="-0.56151">
        <ele>46</ele>
        <time>2013-10-24T15:01:57Z</time>
      </trkpt>
      <trkpt lat="46.36075" lon="-0.56145">
        <ele>46</ele>
        <time>2013-10-24T15:02:02Z</time>
      </trkpt>
      <trkpt lat="46.36081" lon="-0.56136">
        <ele>46</ele>
        <time>2013-10-24T15:02:07Z</time>
      </trkpt>
      <trkpt lat="46.36082" lon="-0.56128">
        <ele>46</ele>
        <time>2013-10-24T15:02:12Z</time>
      </trkpt>
      <trkpt lat="46.36082" lon="-0.56118">
        <ele>48</ele>
        <time>2013-10-24T15:02:17Z</time>
      </trkpt>
      <trkpt lat="46.36082" lon="-0.56111">
        <ele>48</ele>
        <time>2013-10-24T15:02:22Z</time>
      </trkpt>
      <trkpt lat="46.36082" lon="-0.56104">
        <ele>48</ele>
        <time>2013-10-24T15:02:27Z</time>
      </trkpt>
      <trkpt lat="46.36083" lon="-0.56096">
        <ele>48</ele>
        <time>2013-10-24T15:02:32Z</time>
      </trkpt>
      <trkpt lat="46.36084" lon="-0.56083">
        <ele>48</ele>
        <time>2013-10-24T15:02:37Z</time>
      </trkpt>
      <trkpt lat="46.36088" lon="-0.56073">
        <ele>48</ele>
        <time>2013-10-24T15:02:42Z</time>
      </trkpt>
      <trkpt lat="46.3609" lon="-0.56057">
        <ele>48</ele>
        <time>2013-10-24T15:02:47Z</time>
      </trkpt>
      <trkpt lat="46.3609" lon="-0.56055">
        <ele>48</ele>
        <time>2013-10-24T15:02:52Z</time>
      </trkpt>
      <trkpt lat="46.36089" lon="-0.56044">
        <ele>48</ele>
        <time>2013-10-24T15:02:57Z</time>
      </trkpt>
      <trkpt lat="46.36092" lon="-0.56033">
        <ele>51</ele>
        <time>2013-10-24T15:03:02Z</time>
      </trkpt>
      <trkpt lat="46.36093" lon="-0.56026">
        <ele>51</ele>
        <time>2013-10-24T15:03:07Z</time>
      </trkpt>
      <trkpt lat="46.36093" lon="-0.56014">
        <ele>51</ele>
        <time>2013-10-24T15:03:12Z</time>
      </trkpt>
      <trkpt lat="46.36095" lon="-0.56022">
        <ele>51</ele>
        <time>2013-10-24T15:03:17Z</time>
      </trkpt>
      <trkpt lat="46.36097" lon="-0.56014">
        <ele>51</ele>
        <time>2013-10-24T15:03:22Z</time>
      </trkpt>
      <trkpt lat="46.361" lon="-0.56008">
        <ele>51</ele>
        <time>2013-10-24T15:03:27Z</time>
      </trkpt>
      <trkpt lat="46.36101" lon="-0.55998">
        <ele>51</ele>
        <time>2013-10-24T15:03:32Z</time>
      </trkpt>
      <trkpt lat="46.36102" lon="-0.55994">
        <ele>51</ele>
        <time>2013-10-24T15:03:37Z</time>
      </trkpt>
      <trkpt lat="46.36102" lon="-0.55985">
        <ele>51</ele>
        <time>2013-10-24T15:03:42Z</time>
      </trkpt>
      <trkpt lat="46.36103" lon="-0.5598">
        <ele>51</ele>
        <time>2013-10-24T15:03:47Z</time>
      </trkpt>
      <trkpt lat="46.36104" lon="-0.55973">
        <ele>51</ele>
        <time>2013-10-24T15:03:52Z</time>
      </trkpt>
      <trkpt lat="46.36106" lon="-0.55965">
        <ele>51</ele>
        <time>2013-10-24T15:03:57Z</time>
      </trkpt>
      <trkpt lat="46.36108" lon="-0.5596">
        <ele>51</ele>
        <time>2013-10-24T15:04:02Z</time>
      </trkpt>
      <trkpt lat="46.3611" lon="-0.55953">
        <ele>54</ele>
        <time>2013-10-24T15:04:07Z</time>
      </trkpt>
      <trkpt lat="46.36111" lon="-0.55946">
        <ele>54</ele>
        <time>2013-10-24T15:04:12Z</time>
      </trkpt>
      <trkpt lat="46.36114" lon="-0.55937">
        <ele>54</ele>
        <time>2013-10-24T15:04:17Z</time>
      </trkpt>
      <trkpt lat="46.36116" lon="-0.55931">
        <ele>54</ele>
        <time>2013-10-24T15:04:22Z</time>
      </trkpt>
      <trkpt lat="46.36118" lon="-0.55923">
        <ele>54</ele>
        <time>2013-10-24T15:04:27Z</time>
      </trkpt>
      <trkpt lat="46.36122" lon="-0.5592">
        <ele>54</ele>
        <time>2013-10-24T15:04:32Z</time>
      </trkpt>
      <trkpt lat="46.36125" lon="-0.55913">
        <ele>54</ele>
        <time>2013-10-24T15:04:37Z</time>
      </trkpt>
      <trkpt lat="46.36127" lon="-0.55904">
        <ele>54</ele>
        <time>2013-10-24T15:04:42Z</time>
      </trkpt>
      <trkpt lat="46.3613" lon="-0.55897">
        <ele>54</ele>
        <time>2013-10-24T15:04:47Z</time>
      </trkpt>
      <trkpt lat="46.36133" lon="-0.55893">
        <ele>54</ele>
        <time>2013-10-24T15:04:52Z</time>
      </trkpt>
      <trkpt lat="46.36136" lon="-0.55886">
        <ele>54</ele>
        <time>2013-10-24T15:04:57Z</time>
      </trkpt>
      <trkpt lat="46.36138" lon="-0.55882">
        <ele>54</ele>
        <time>2013-10-24T15:05:02Z</time>
      </trkpt>
      <trkpt lat="46.36137" lon="-0.5587">
        <ele>55</ele>
        <time>2013-10-24T15:05:07Z</time>
      </trkpt>
      <trkpt lat="46.36136" lon="-0.55861">
        <ele>55</ele>
        <time>2013-10-24T15:05:12Z</time>
      </trkpt>
      <trkpt lat="46.36136" lon="-0.55854">
        <ele>55</ele>
        <time>2013-10-24T15:05:17Z</time>
      </trkpt>
      <trkpt lat="46.36134" lon="-0.55845">
        <ele>55</ele>
        <time>2013-10-24T15:05:22Z</time>
      </trkpt>
      <trkpt lat="46.36134" lon="-0.55839">
        <ele>55</ele>
        <time>2013-10-24T15:05:27Z</time>
      </trkpt>
      <trkpt lat="46.36133" lon="-0.55834">
        <ele>55</ele>
        <time>2013-10-24T15:05:32Z</time>
      </trkpt>
      <trkpt lat="46.36133" lon="-0.55833">
        <ele>55</ele>
        <time>2013-10-24T15:05:37Z</time>
      </trkpt>
      <trkpt lat="46.36133" lon="-0.55832">
        <ele>55</ele>
        <time>2013-10-24T15:05:42Z</time>
      </trkpt>
      <trkpt lat="46.36132" lon="-0.5583">
        <ele>55</ele>
        <time>2013-10-24T15:05:47Z</time>
      </trkpt>
      <trkpt lat="46.36132" lon="-0.55825">
        <ele>55</ele>
        <time>2013-10-24T15:05:52Z</time>
      </trkpt>
      <trkpt lat="46.36132" lon="-0.55818">
        <ele>55</ele>
        <time>2013-10-24T15:05:57Z</time>
      </trkpt>
      <trkpt lat="46.3613" lon="-0.5581">
        <ele>55</ele>
        <time>2013-10-24T15:06:02Z</time>
      </trkpt>
      <trkpt lat="46.36127" lon="-0.558">
        <ele>55</ele>
        <time>2013-10-24T15:06:07Z</time>
      </trkpt>
      <trkpt lat="46.36127" lon="-0.55793">
        <ele>55</ele>
        <time>2013-10-24T15:06:12Z</time>
      </trkpt>
      <trkpt lat="46.36129" lon="-0.55782">
        <ele>59</ele>
        <time>2013-10-24T15:06:17Z</time>
      </trkpt>
      <trkpt lat="46.3613" lon="-0.55779">
        <ele>59</ele>
        <time>2013-10-24T15:06:22Z</time>
      </trkpt>
      <trkpt lat="46.36128" lon="-0.55771">
        <ele>59</ele>
        <time>2013-10-24T15:06:27Z</time>
      </trkpt>
      <trkpt lat="46.36126" lon="-0.55762">
        <ele>59</ele>
        <time>2013-10-24T15:06:32Z</time>
      </trkpt>
      <trkpt lat="46.36125" lon="-0.55754">
        <ele>59</ele>
        <time>2013-10-24T15:06:37Z</time>
      </trkpt>
      <trkpt lat="46.36125" lon="-0.55745">
        <ele>58</ele>
        <time>2013-10-24T15:06:42Z</time>
      </trkpt>
      <trkpt lat="46.36124" lon="-0.55736">
        <ele>58</ele>
        <time>2013-10-24T15:06:47Z</time>
      </trkpt>
      <trkpt lat="46.36124" lon="-0.55729">
        <ele>58</ele>
        <time>2013-10-24T15:06:52Z</time>
      </trkpt>
      <trkpt lat="46.36123" lon="-0.55721">
        <ele>58</ele>
        <time>2013-10-24T15:06:57Z</time>
      </trkpt>
      <trkpt lat="46.36123" lon="-0.55714">
        <ele>58</ele>
        <time>2013-10-24T15:07:02Z</time>
      </trkpt>
      <trkpt lat="46.36123" lon="-0.55706">
        <ele>61</ele>
        <time>2013-10-24T15:07:07Z</time>
      </trkpt>
      <trkpt lat="46.36122" lon="-0.55698">
        <ele>61</ele>
        <time>2013-10-24T15:07:12Z</time>
      </trkpt>
      <trkpt lat="46.36121" lon="-0.55692">
        <ele>61</ele>
        <time>2013-10-24T15:07:17Z</time>
      </trkpt>
      <trkpt lat="46.36121" lon="-0.55689">
        <ele>61</ele>
        <time>2013-10-24T15:07:22Z</time>
      </trkpt>
      <trkpt lat="46.36119" lon="-0.55678">
        <ele>61</ele>
        <time>2013-10-24T15:07:27Z</time>
      </trkpt>
      <trkpt lat="46.36118" lon="-0.55672">
        <ele>61</ele>
        <time>2013-10-24T15:07:32Z</time>
      </trkpt>
      <trkpt lat="46.36116" lon="-0.55663">
        <ele>61</ele>
        <time>2013-10-24T15:07:37Z</time>
      </trkpt>
      <trkpt lat="46.36115" lon="-0.55655">
        <ele>61</ele>
        <time>2013-10-24T15:07:42Z</time>
      </trkpt>
      <trkpt lat="46.36113" lon="-0.55648">
        <ele>61</ele>
        <time>2013-10-24T15:07:47Z</time>
      </trkpt>
      <trkpt lat="46.36111" lon="-0.55639">
        <ele>61</ele>
        <time>2013-10-24T15:07:52Z</time>
      </trkpt>
      <trkpt lat="46.36108" lon="-0.55634">
        <ele>61</ele>
        <time>2013-10-24T15:07:57Z</time>
      </trkpt>
      <trkpt lat="46.36105" lon="-0.55626">
        <ele>61</ele>
        <time>2013-10-24T15:08:02Z</time>
      </trkpt>
      <trkpt lat="46.36105" lon="-0.55628">
        <ele>61</ele>
        <time>2013-10-24T15:08:07Z</time>
      </trkpt>
      <trkpt lat="46.36103" lon="-0.55622">
        <ele>62</ele>
        <time>2013-10-24T15:08:12Z</time>
      </trkpt>
      <trkpt lat="46.361" lon="-0.55617">
        <ele>62</ele>
        <time>2013-10-24T15:08:17Z</time>
      </trkpt>
      <trkpt lat="46.36096" lon="-0.55607">
        <ele>62</ele>
        <time>2013-10-24T15:08:22Z</time>
      </trkpt>
      <trkpt lat="46.36095" lon="-0.55598">
        <ele>62</ele>
        <time>2013-10-24T15:08:27Z</time>
      </trkpt>
      <trkpt lat="46.36093" lon="-0.55589">
        <ele>62</ele>
        <time>2013-10-24T15:08:32Z</time>
      </trkpt>
      <trkpt lat="46.3609" lon="-0.55581">
        <ele>62</ele>
        <time>2013-10-24T15:08:37Z</time>
      </trkpt>
      <trkpt lat="46.36088" lon="-0.55578">
        <ele>62</ele>
        <time>2013-10-24T15:08:42Z</time>
      </trkpt>
      <trkpt lat="46.36087" lon="-0.55572">
        <ele>62</ele>
        <time>2013-10-24T15:08:47Z</time>
      </trkpt>
      <trkpt lat="46.36085" lon="-0.55563">
        <ele>62</ele>
        <time>2013-10-24T15:08:52Z</time>
      </trkpt>
      <trkpt lat="46.36082" lon="-0.55558">
        <ele>62</ele>
        <time>2013-10-24T15:08:57Z</time>
      </trkpt>
      <trkpt lat="46.36081" lon="-0.55553">
        <ele>62</ele>
        <time>2013-10-24T15:09:02Z</time>
      </trkpt>
      <trkpt lat="46.36079" lon="-0.55543">
        <ele>62</ele>
        <time>2013-10-24T15:09:07Z</time>
      </trkpt>
      <trkpt lat="46.36076" lon="-0.55538">
        <ele>63</ele>
        <time>2013-10-24T15:09:12Z</time>
      </trkpt>
      <trkpt lat="46.36074" lon="-0.55531">
        <ele>63</ele>
        <time>2013-10-24T15:09:17Z</time>
      </trkpt>
      <trkpt lat="46.36071" lon="-0.55524">
        <ele>63</ele>
        <time>2013-10-24T15:09:22Z</time>
      </trkpt>
      <trkpt lat="46.36068" lon="-0.5552">
        <ele>63</ele>
        <time>2013-10-24T15:09:27Z</time>
      </trkpt>
      <trkpt lat="46.36065" lon="-0.55515">
        <ele>63</ele>
        <time>2013-10-24T15:09:32Z</time>
      </trkpt>
      <trkpt lat="46.36063" lon="-0.55508">
        <ele>63</ele>
        <time>2013-10-24T15:09:37Z</time>
      </trkpt>
      <trkpt lat="46.36062" lon="-0.55503">
        <ele>63</ele>
        <time>2013-10-24T15:09:42Z</time>
      </trkpt>
      <trkpt lat="46.3606" lon="-0.55496">
        <ele>63</ele>
        <time>2013-10-24T15:09:47Z</time>
      </trkpt>
      <trkpt lat="46.36057" lon="-0.55484">
        <ele>63</ele>
        <time>2013-10-24T15:09:52Z</time>
      </trkpt>
      <trkpt lat="46.36056" lon="-0.55479">
        <ele>63</ele>
        <time>2013-10-24T15:09:57Z</time>
      </trkpt>
      <trkpt lat="46.36055" lon="-0.55475">
        <ele>63</ele>
        <time>2013-10-24T15:10:02Z</time>
      </trkpt>
      <trkpt lat="46.36052" lon="-0.55459">
        <ele>63</ele>
        <time>2013-10-24T15:10:07Z</time>
      </trkpt>
      <trkpt lat="46.36049" lon="-0.55455">
        <ele>64</ele>
        <time>2013-10-24T15:10:12Z</time>
      </trkpt>
      <trkpt lat="46.36046" lon="-0.55453">
        <ele>64</ele>
        <time>2013-10-24T15:10:17Z</time>
      </trkpt>
      <trkpt lat="46.36044" lon="-0.55446">
        <ele>64</ele>
        <time>2013-10-24T15:10:22Z</time>
      </trkpt>
      <trkpt lat="46.36042" lon="-0.5544">
        <ele>66</ele>
        <time>2013-10-24T15:10:27Z</time>
      </trkpt>
      <trkpt lat="46.36039" lon="-0.55432">
        <ele>66</ele>
        <time>2013-10-24T15:10:32Z</time>
      </trkpt>
      <trkpt lat="46.36037" lon="-0.55424">
        <ele>66</ele>
        <time>2013-10-24T15:10:37Z</time>
      </trkpt>
      <trkpt lat="46.36035" lon="-0.55422">
        <ele>66</ele>
        <time>2013-10-24T15:10:42Z</time>
      </trkpt>
      <trkpt lat="46.36034" lon="-0.55419">
        <ele>66</ele>
        <time>2013-10-24T15:10:47Z</time>
      </trkpt>
      <trkpt lat="46.36032" lon="-0.55415">
        <ele>66</ele>
        <time>2013-10-24T15:10:52Z</time>
      </trkpt>
      <trkpt lat="46.3603" lon="-0.55407">
        <ele>66</ele>
        <time>2013-10-24T15:10:57Z</time>
      </trkpt>
      <trkpt lat="46.36028" lon="-0.55401">
        <ele>66</ele>
        <time>2013-10-24T15:11:02Z</time>
      </trkpt>
      <trkpt lat="46.36026" lon="-0.55394">
        <ele>66</ele>
        <time>2013-10-24T15:11:07Z</time>
      </trkpt>
      <trkpt lat="46.36023" lon="-0.5539">
        <ele>66</ele>
        <time>2013-10-24T15:11:12Z</time>
      </trkpt>
      <trkpt lat="46.36021" lon="-0.55385">
        <ele>66</ele>
        <time>2013-10-24T15:11:17Z</time>
      </trkpt>
      <trkpt lat="46.36019" lon="-0.55378">
        <ele>66</ele>
        <time>2013-10-24T15:11:22Z</time>
      </trkpt>
      <trkpt lat="46.36016" lon="-0.55371">
        <ele>67</ele>
        <time>2013-10-24T15:11:27Z</time>
      </trkpt>
      <trkpt lat="46.36013" lon="-0.55363">
        <ele>67</ele>
        <time>2013-10-24T15:11:32Z</time>
      </trkpt>
      <trkpt lat="46.36011" lon="-0.55359">
        <ele>67</ele>
        <time>2013-10-24T15:11:37Z</time>
      </trkpt>
      <trkpt lat="46.36008" lon="-0.55351">
        <ele>67</ele>
        <time>2013-10-24T15:11:42Z</time>
      </trkpt>
      <trkpt lat="46.36007" lon="-0.55342">
        <ele>67</ele>
        <time>2013-10-24T15:11:47Z</time>
      </trkpt>
      <trkpt lat="46.36004" lon="-0.55335">
        <ele>67</ele>
        <time>2013-10-24T15:11:52Z</time>
      </trkpt>
      <trkpt lat="46.36001" lon="-0.55326">
        <ele>67</ele>
        <time>2013-10-24T15:11:57Z</time>
      </trkpt>
      <trkpt lat="46.35999" lon="-0.55317">
        <ele>67</ele>
        <time>2013-10-24T15:12:02Z</time>
      </trkpt>
      <trkpt lat="46.35996" lon="-0.5531">
        <ele>67</ele>
        <time>2013-10-24T15:12:07Z</time>
      </trkpt>
      <trkpt lat="46.35993" lon="-0.55297">
        <ele>67</ele>
        <time>2013-10-24T15:12:12Z</time>
      </trkpt>
      <trkpt lat="46.35991" lon="-0.55291">
        <ele>68</ele>
        <time>2013-10-24T15:12:17Z</time>
      </trkpt>
      <trkpt lat="46.35988" lon="-0.55284">
        <ele>68</ele>
        <time>2013-10-24T15:12:22Z</time>
      </trkpt>
      <trkpt lat="46.35985" lon="-0.55279">
        <ele>68</ele>
        <time>2013-10-24T15:12:27Z</time>
      </trkpt>
      <trkpt lat="46.35983" lon="-0.5527">
        <ele>68</ele>
        <time>2013-10-24T15:12:32Z</time>
      </trkpt>
      <trkpt lat="46.3598" lon="-0.55262">
        <ele>68</ele>
        <time>2013-10-24T15:12:37Z</time>
      </trkpt>
      <trkpt lat="46.35978" lon="-0.55254">
        <ele>68</ele>
        <time>2013-10-24T15:12:42Z</time>
      </trkpt>
      <trkpt lat="46.35976" lon="-0.55246">
        <ele>68</ele>
        <time>2013-10-24T15:12:47Z</time>
      </trkpt>
      <trkpt lat="46.35974" lon="-0.55239">
        <ele>68</ele>
        <time>2013-10-24T15:12:52Z</time>
      </trkpt>
      <trkpt lat="46.35971" lon="-0.5523">
        <ele>68</ele>
        <time>2013-10-24T15:12:57Z</time>
      </trkpt>
      <trkpt lat="46.35969" lon="-0.55222">
        <ele>68</ele>
        <time>2013-10-24T15:13:02Z</time>
      </trkpt>
      <trkpt lat="46.35967" lon="-0.55215">
        <ele>68</ele>
        <time>2013-10-24T15:13:07Z</time>
      </trkpt>
      <trkpt lat="46.35965" lon="-0.55208">
        <ele>69</ele>
        <time>2013-10-24T15:13:12Z</time>
      </trkpt>
      <trkpt lat="46.35963" lon="-0.55201">
        <ele>69</ele>
        <time>2013-10-24T15:13:17Z</time>
      </trkpt>
      <trkpt lat="46.35961" lon="-0.55196">
        <ele>69</ele>
        <time>2013-10-24T15:13:22Z</time>
      </trkpt>
      <trkpt lat="46.35958" lon="-0.55189">
        <ele>68</ele>
        <time>2013-10-24T15:13:27Z</time>
      </trkpt>
      <trkpt lat="46.35956" lon="-0.55183">
        <ele>68</ele>
        <time>2013-10-24T15:13:32Z</time>
      </trkpt>
      <trkpt lat="46.35954" lon="-0.55178">
        <ele>68</ele>
        <time>2013-10-24T15:13:37Z</time>
      </trkpt>
      <trkpt lat="46.35952" lon="-0.55171">
        <ele>68</ele>
        <time>2013-10-24T15:13:42Z</time>
      </trkpt>
      <trkpt lat="46.35949" lon="-0.55166">
        <ele>68</ele>
        <time>2013-10-24T15:13:47Z</time>
      </trkpt>
      <trkpt lat="46.35946" lon="-0.55162">
        <ele>68</ele>
        <time>2013-10-24T15:13:52Z</time>
      </trkpt>
      <trkpt lat="46.35944" lon="-0.55153">
        <ele>68</ele>
        <time>2013-10-24T15:13:57Z</time>
      </trkpt>
      <trkpt lat="46.35942" lon="-0.55148">
        <ele>68</ele>
        <time>2013-10-24T15:14:02Z</time>
      </trkpt>
      <trkpt lat="46.35939" lon="-0.5514">
        <ele>68</ele>
        <time>2013-10-24T15:14:07Z</time>
      </trkpt>
      <trkpt lat="46.35936" lon="-0.55133">
        <ele>68</ele>
        <time>2013-10-24T15:14:12Z</time>
      </trkpt>
      <trkpt lat="46.35934" lon="-0.55125">
        <ele>70</ele>
        <time>2013-10-24T15:14:17Z</time>
      </trkpt>
      <trkpt lat="46.35933" lon="-0.55119">
        <ele>70</ele>
        <time>2013-10-24T15:14:22Z</time>
      </trkpt>
      <trkpt lat="46.3593" lon="-0.55111">
        <ele>70</ele>
        <time>2013-10-24T15:14:27Z</time>
      </trkpt>
      <trkpt lat="46.35927" lon="-0.55103">
        <ele>70</ele>
        <time>2013-10-24T15:14:32Z</time>
      </trkpt>
      <trkpt lat="46.35925" lon="-0.55096">
        <ele>70</ele>
        <time>2013-10-24T15:14:37Z</time>
      </trkpt>
      <trkpt lat="46.35922" lon="-0.55088">
        <ele>70</ele>
        <time>2013-10-24T15:14:42Z</time>
      </trkpt>
      <trkpt lat="46.3592" lon="-0.55081">
        <ele>70</ele>
        <time>2013-10-24T15:14:47Z</time>
      </trkpt>
      <trkpt lat="46.35918" lon="-0.55073">
        <ele>70</ele>
        <time>2013-10-24T15:14:52Z</time>
      </trkpt>
      <trkpt lat="46.35916" lon="-0.55066">
        <ele>70</ele>
        <time>2013-10-24T15:14:57Z</time>
      </trkpt>
      <trkpt lat="46.35913" lon="-0.55058">
        <ele>70</ele>
        <time>2013-10-24T15:15:02Z</time>
      </trkpt>
      <trkpt lat="46.35909" lon="-0.55052">
        <ele>70</ele>
        <time>2013-10-24T15:15:07Z</time>
      </trkpt>
      <trkpt lat="46.35907" lon="-0.55044">
        <ele>70</ele>
        <time>2013-10-24T15:15:12Z</time>
      </trkpt>
      <trkpt lat="46.35906" lon="-0.55038">
        <ele>71</ele>
        <time>2013-10-24T15:15:17Z</time>
      </trkpt>
      <trkpt lat="46.35905" lon="-0.55037">
        <ele>71</ele>
        <time>2013-10-24T15:15:22Z</time>
      </trkpt>
      <trkpt lat="46.35903" lon="-0.55031">
        <ele>71</ele>
        <time>2013-10-24T15:15:27Z</time>
      </trkpt>
      <trkpt lat="46.35901" lon="-0.55026">
        <ele>71</ele>
        <time>2013-10-24T15:15:32Z</time>
      </trkpt>
      <trkpt lat="46.35899" lon="-0.55016">
        <ele>71</ele>
        <time>2013-10-24T15:15:37Z</time>
      </trkpt>
      <trkpt lat="46.35896" lon="-0.55008">
        <ele>71</ele>
        <time>2013-10-24T15:15:42Z</time>
      </trkpt>
      <trkpt lat="46.35893" lon="-0.55">
        <ele>71</ele>
        <time>2013-10-24T15:15:47Z</time>
      </trkpt>
      <trkpt lat="46.3589" lon="-0.54994">
        <ele>71</ele>
        <time>2013-10-24T15:15:52Z</time>
      </trkpt>
      <trkpt lat="46.35888" lon="-0.54986">
        <ele>71</ele>
        <time>2013-10-24T15:15:57Z</time>
      </trkpt>
      <trkpt lat="46.35885" lon="-0.54977">
        <ele>71</ele>
        <time>2013-10-24T15:16:02Z</time>
      </trkpt>
      <trkpt lat="46.35883" lon="-0.5497">
        <ele>71</ele>
        <time>2013-10-24T15:16:07Z</time>
      </trkpt>
      <trkpt lat="46.3588" lon="-0.54964">
        <ele>71</ele>
        <time>2013-10-24T15:16:12Z</time>
      </trkpt>
      <trkpt lat="46.35877" lon="-0.54957">
        <ele>71</ele>
        <time>2013-10-24T15:16:17Z</time>
      </trkpt>
      <trkpt lat="46.35875" lon="-0.5495">
        <ele>71</ele>
        <time>2013-10-24T15:16:22Z</time>
      </trkpt>
      <trkpt lat="46.35872" lon="-0.54941">
        <ele>72</ele>
        <time>2013-10-24T15:16:27Z</time>
      </trkpt>
      <trkpt lat="46.35871" lon="-0.54933">
        <ele>72</ele>
        <time>2013-10-24T15:16:32Z</time>
      </trkpt>
      <trkpt lat="46.35869" lon="-0.54926">
        <ele>72</ele>
        <time>2013-10-24T15:16:37Z</time>
      </trkpt>
      <trkpt lat="46.35866" lon="-0.54917">
        <ele>72</ele>
        <time>2013-10-24T15:16:42Z</time>
      </trkpt>
      <trkpt lat="46.35864" lon="-0.54907">
        <ele>72</ele>
        <time>2013-10-24T15:16:47Z</time>
      </trkpt>
      <trkpt lat="46.35861" lon="-0.54898">
        <ele>72</ele>
        <time>2013-10-24T15:16:52Z</time>
      </trkpt>
      <trkpt lat="46.35859" lon="-0.5489">
        <ele>72</ele>
        <time>2013-10-24T15:16:57Z</time>
      </trkpt>
      <trkpt lat="46.35857" lon="-0.54882">
        <ele>72</ele>
        <time>2013-10-24T15:17:02Z</time>
      </trkpt>
      <trkpt lat="46.35854" lon="-0.54875">
        <ele>72</ele>
        <time>2013-10-24T15:17:07Z</time>
      </trkpt>
      <trkpt lat="46.35851" lon="-0.54867">
        <ele>74</ele>
        <time>2013-10-24T15:17:12Z</time>
      </trkpt>
      <trkpt lat="46.3585" lon="-0.54859">
        <ele>74</ele>
        <time>2013-10-24T15:17:17Z</time>
      </trkpt>
      <trkpt lat="46.35847" lon="-0.54852">
        <ele>74</ele>
        <time>2013-10-24T15:17:22Z</time>
      </trkpt>
      <trkpt lat="46.35845" lon="-0.54844">
        <ele>74</ele>
        <time>2013-10-24T15:17:27Z</time>
      </trkpt>
      <trkpt lat="46.35843" lon="-0.54839">
        <ele>74</ele>
        <time>2013-10-24T15:17:32Z</time>
      </trkpt>
      <trkpt lat="46.3584" lon="-0.5483">
        <ele>74</ele>
        <time>2013-10-24T15:17:37Z</time>
      </trkpt>
      <trkpt lat="46.35837" lon="-0.54822">
        <ele>74</ele>
        <time>2013-10-24T15:17:42Z</time>
      </trkpt>
      <trkpt lat="46.35835" lon="-0.54815">
        <ele>74</ele>
        <time>2013-10-24T15:17:47Z</time>
      </trkpt>
      <trkpt lat="46.35832" lon="-0.54809">
        <ele>74</ele>
        <time>2013-10-24T15:17:52Z</time>
      </trkpt>
      <trkpt lat="46.3583" lon="-0.54802">
        <ele>74</ele>
        <time>2013-10-24T15:17:57Z</time>
      </trkpt>
      <trkpt lat="46.35828" lon="-0.54795">
        <ele>74</ele>
        <time>2013-10-24T15:18:02Z</time>
      </trkpt>
      <trkpt lat="46.35826" lon="-0.5479">
        <ele>74</ele>
        <time>2013-10-24T15:18:07Z</time>
      </trkpt>
      <trkpt lat="46.35823" lon="-0.54782">
        <ele>74</ele>
        <time>2013-10-24T15:18:12Z</time>
      </trkpt>
      <trkpt lat="46.35821" lon="-0.54774">
        <ele>74</ele>
        <time>2013-10-24T15:18:17Z</time>
      </trkpt>
      <trkpt lat="46.35818" lon="-0.54769">
        <ele>74</ele>
        <time>2013-10-24T15:18:22Z</time>
      </trkpt>
      <trkpt lat="46.35817" lon="-0.54762">
        <ele>74</ele>
        <time>2013-10-24T15:18:27Z</time>
      </trkpt>
      <trkpt lat="46.35815" lon="-0.54756">
        <ele>74</ele>
        <time>2013-10-24T15:18:32Z</time>
      </trkpt>
      <trkpt lat="46.35812" lon="-0.54747">
        <ele>74</ele>
        <time>2013-10-24T15:18:37Z</time>
      </trkpt>
      <trkpt lat="46.35809" lon="-0.5474">
        <ele>74</ele>
        <time>2013-10-24T15:18:42Z</time>
      </trkpt>
      <trkpt lat="46.35807" lon="-0.54732">
        <ele>74</ele>
        <time>2013-10-24T15:18:47Z</time>
      </trkpt>
      <trkpt lat="46.35805" lon="-0.54727">
        <ele>74</ele>
        <time>2013-10-24T15:18:52Z</time>
      </trkpt>
      <trkpt lat="46.35802" lon="-0.54719">
        <ele>74</ele>
        <time>2013-10-24T15:18:57Z</time>
      </trkpt>
      <trkpt lat="46.358" lon="-0.54712">
        <ele>74</ele>
        <time>2013-10-24T15:19:02Z</time>
      </trkpt>
      <trkpt lat="46.35798" lon="-0.54705">
        <ele>73</ele>
        <time>2013-10-24T15:19:07Z</time>
      </trkpt>
      <trkpt lat="46.35795" lon="-0.54698">
        <ele>73</ele>
        <time>2013-10-24T15:19:12Z</time>
      </trkpt>
      <trkpt lat="46.35793" lon="-0.5469">
        <ele>73</ele>
        <time>2013-10-24T15:19:17Z</time>
      </trkpt>
      <trkpt lat="46.35791" lon="-0.54685">
        <ele>75</ele>
        <time>2013-10-24T15:19:22Z</time>
      </trkpt>
      <trkpt lat="46.35789" lon="-0.54682">
        <ele>75</ele>
        <time>2013-10-24T15:19:27Z</time>
      </trkpt>
      <trkpt lat="46.35787" lon="-0.54673">
        <ele>75</ele>
        <time>2013-10-24T15:19:32Z</time>
      </trkpt>
      <trkpt lat="46.35785" lon="-0.54667">
        <ele>75</ele>
        <time>2013-10-24T15:19:37Z</time>
      </trkpt>
      <trkpt lat="46.35782" lon="-0.54659">
        <ele>75</ele>
        <time>2013-10-24T15:19:42Z</time>
      </trkpt>
      <trkpt lat="46.3578" lon="-0.54653">
        <ele>75</ele>
        <time>2013-10-24T15:19:47Z</time>
      </trkpt>
      <trkpt lat="46.35777" lon="-0.54647">
        <ele>75</ele>
        <time>2013-10-24T15:19:52Z</time>
      </trkpt>
      <trkpt lat="46.35774" lon="-0.54639">
        <ele>75</ele>
        <time>2013-10-24T15:19:57Z</time>
      </trkpt>
      <trkpt lat="46.35772" lon="-0.54633">
        <ele>75</ele>
        <time>2013-10-24T15:20:02Z</time>
      </trkpt>
      <trkpt lat="46.35771" lon="-0.54627">
        <ele>75</ele>
        <time>2013-10-24T15:20:07Z</time>
      </trkpt>
      <trkpt lat="46.35769" lon="-0.5462">
        <ele>76</ele>
        <time>2013-10-24T15:20:12Z</time>
      </trkpt>
      <trkpt lat="46.35768" lon="-0.54614">
        <ele>76</ele>
        <time>2013-10-24T15:20:17Z</time>
      </trkpt>
      <trkpt lat="46.35765" lon="-0.54606">
        <ele>76</ele>
        <time>2013-10-24T15:20:22Z</time>
      </trkpt>
      <trkpt lat="46.35762" lon="-0.546">
        <ele>76</ele>
        <time>2013-10-24T15:20:27Z</time>
      </trkpt>
      <trkpt lat="46.35759" lon="-0.54593">
        <ele>76</ele>
        <time>2013-10-24T15:20:32Z</time>
      </trkpt>
      <trkpt lat="46.35756" lon="-0.54587">
        <ele>76</ele>
        <time>2013-10-24T15:20:37Z</time>
      </trkpt>
      <trkpt lat="46.35753" lon="-0.54581">
        <ele>76</ele>
        <time>2013-10-24T15:20:42Z</time>
      </trkpt>
      <trkpt lat="46.35751" lon="-0.54575">
        <ele>76</ele>
        <time>2013-10-24T15:20:47Z</time>
      </trkpt>
      <trkpt lat="46.35749" lon="-0.54567">
        <ele>76</ele>
        <time>2013-10-24T15:20:52Z</time>
      </trkpt>
      <trkpt lat="46.35747" lon="-0.54564">
        <ele>76</ele>
        <time>2013-10-24T15:20:57Z</time>
      </trkpt>
      <trkpt lat="46.35746" lon="-0.54559">
        <ele>76</ele>
        <time>2013-10-24T15:21:02Z</time>
      </trkpt>
      <trkpt lat="46.35743" lon="-0.54553">
        <ele>76</ele>
        <time>2013-10-24T15:21:07Z</time>
      </trkpt>
      <trkpt lat="46.35739" lon="-0.54544">
        <ele>76</ele>
        <time>2013-10-24T15:21:12Z</time>
      </trkpt>
      <trkpt lat="46.35736" lon="-0.54535">
        <ele>76</ele>
        <time>2013-10-24T15:21:17Z</time>
      </trkpt>
      <trkpt lat="46.35734" lon="-0.54524">
        <ele>76</ele>
        <time>2013-10-24T15:21:22Z</time>
      </trkpt>
      <trkpt lat="46.35731" lon="-0.54517">
        <ele>76</ele>
        <time>2013-10-24T15:21:27Z</time>
      </trkpt>
      <trkpt lat="46.35728" lon="-0.54511">
        <ele>76</ele>
        <time>2013-10-24T15:21:32Z</time>
      </trkpt>
      <trkpt lat="46.35726" lon="-0.54502">
        <ele>76</ele>
        <time>2013-10-24T15:21:37Z</time>
      </trkpt>
      <trkpt lat="46.35724" lon="-0.54495">
        <ele>76</ele>
        <time>2013-10-24T15:21:42Z</time>
      </trkpt>
      <trkpt lat="46.35721" lon="-0.54485">
        <ele>76</ele>
        <time>2013-10-24T15:21:47Z</time>
      </trkpt>
      <trkpt lat="46.35719" lon="-0.54476">
        <ele>76</ele>
        <time>2013-10-24T15:21:52Z</time>
      </trkpt>
      <trkpt lat="46.35717" lon="-0.54469">
        <ele>76</ele>
        <time>2013-10-24T15:21:57Z</time>
      </trkpt>
      <trkpt lat="46.35714" lon="-0.5446">
        <ele>76</ele>
        <time>2013-10-24T15:22:02Z</time>
      </trkpt>
      <trkpt lat="46.35712" lon="-0.54453">
        <ele>76</ele>
        <time>2013-10-24T15:22:07Z</time>
      </trkpt>
      <trkpt lat="46.3571" lon="-0.54447">
        <ele>76</ele>
        <time>2013-10-24T15:22:12Z</time>
      </trkpt>
      <trkpt lat="46.35709" lon="-0.54442">
        <ele>76</ele>
        <time>2013-10-24T15:22:17Z</time>
      </trkpt>
      <trkpt lat="46.35706" lon="-0.54437">
        <ele>76</ele>
        <time>2013-10-24T15:22:22Z</time>
      </trkpt>
      <trkpt lat="46.35704" lon="-0.54433">
        <ele>76</ele>
        <time>2013-10-24T15:22:27Z</time>
      </trkpt>
      <trkpt lat="46.35702" lon="-0.54423">
        <ele>76</ele>
        <time>2013-10-24T15:22:32Z</time>
      </trkpt>
      <trkpt lat="46.35699" lon="-0.54416">
        <ele>76</ele>
        <time>2013-10-24T15:22:37Z</time>
      </trkpt>
      <trkpt lat="46.35697" lon="-0.5441">
        <ele>76</ele>
        <time>2013-10-24T15:22:42Z</time>
      </trkpt>
      <trkpt lat="46.35696" lon="-0.54406">
        <ele>76</ele>
        <time>2013-10-24T15:22:47Z</time>
      </trkpt>
      <trkpt lat="46.35692" lon="-0.54397">
        <ele>76</ele>
        <time>2013-10-24T15:22:52Z</time>
      </trkpt>
      <trkpt lat="46.3569" lon="-0.54392">
        <ele>76</ele>
        <time>2013-10-24T15:22:57Z</time>
      </trkpt>
      <trkpt lat="46.35688" lon="-0.54386">
        <ele>76</ele>
        <time>2013-10-24T15:23:02Z</time>
      </trkpt>
      <trkpt lat="46.35685" lon="-0.54379">
        <ele>76</ele>
        <time>2013-10-24T15:23:07Z</time>
      </trkpt>
      <trkpt lat="46.35683" lon="-0.5437">
        <ele>76</ele>
        <time>2013-10-24T15:23:12Z</time>
      </trkpt>
      <trkpt lat="46.35681" lon="-0.5436">
        <ele>76</ele>
        <time>2013-10-24T15:23:17Z</time>
      </trkpt>
      <trkpt lat="46.35678" lon="-0.54354">
        <ele>76</ele>
        <time>2013-10-24T15:23:22Z</time>
      </trkpt>
      <trkpt lat="46.35676" lon="-0.54347">
        <ele>76</ele>
        <time>2013-10-24T15:23:27Z</time>
      </trkpt>
      <trkpt lat="46.35673" lon="-0.54339">
        <ele>76</ele>
        <time>2013-10-24T15:23:32Z</time>
      </trkpt>
      <trkpt lat="46.35671" lon="-0.54333">
        <ele>76</ele>
        <time>2013-10-24T15:23:37Z</time>
      </trkpt>
      <trkpt lat="46.35669" lon="-0.54327">
        <ele>76</ele>
        <time>2013-10-24T15:23:42Z</time>
      </trkpt>
      <trkpt lat="46.35666" lon="-0.54319">
        <ele>76</ele>
        <time>2013-10-24T15:23:47Z</time>
      </trkpt>
      <trkpt lat="46.35663" lon="-0.54313">
        <ele>76</ele>
        <time>2013-10-24T15:23:52Z</time>
      </trkpt>
      <trkpt lat="46.35661" lon="-0.54304">
        <ele>76</ele>
        <time>2013-10-24T15:23:57Z</time>
      </trkpt>
      <trkpt lat="46.3566" lon="-0.54297">
        <ele>76</ele>
        <time>2013-10-24T15:24:02Z</time>
      </trkpt>
      <trkpt lat="46.35658" lon="-0.54291">
        <ele>77</ele>
        <time>2013-10-24T15:24:07Z</time>
      </trkpt>
      <trkpt lat="46.35655" lon="-0.54285">
        <ele>77</ele>
        <time>2013-10-24T15:24:12Z</time>
      </trkpt>
      <trkpt lat="46.35653" lon="-0.54278">
        <ele>77</ele>
        <time>2013-10-24T15:24:17Z</time>
      </trkpt>
      <trkpt lat="46.3565" lon="-0.5427">
        <ele>77</ele>
        <time>2013-10-24T15:24:22Z</time>
      </trkpt>
      <trkpt lat="46.35648" lon="-0.54263">
        <ele>77</ele>
        <time>2013-10-24T15:24:27Z</time>
      </trkpt>
      <trkpt lat="46.35645" lon="-0.54256">
        <ele>77</ele>
        <time>2013-10-24T15:24:32Z</time>
      </trkpt>
      <trkpt lat="46.35643" lon="-0.5425">
        <ele>77</ele>
        <time>2013-10-24T15:24:37Z</time>
      </trkpt>
      <trkpt lat="46.35641" lon="-0.54241">
        <ele>77</ele>
        <time>2013-10-24T15:24:42Z</time>
      </trkpt>
      <trkpt lat="46.35639" lon="-0.54235">
        <ele>77</ele>
        <time>2013-10-24T15:24:47Z</time>
      </trkpt>
      <trkpt lat="46.35637" lon="-0.54229">
        <ele>77</ele>
        <time>2013-10-24T15:24:52Z</time>
      </trkpt>
      <trkpt lat="46.35634" lon="-0.54222">
        <ele>77</ele>
        <time>2013-10-24T15:24:57Z</time>
      </trkpt>
      <trkpt lat="46.35632" lon="-0.54216">
        <ele>77</ele>
        <time>2013-10-24T15:25:02Z</time>
      </trkpt>
      <trkpt lat="46.3563" lon="-0.5421">
        <ele>77</ele>
        <time>2013-10-24T15:25:07Z</time>
      </trkpt>
      <trkpt lat="46.35627" lon="-0.54204">
        <ele>76</ele>
        <time>2013-10-24T15:25:12Z</time>
      </trkpt>
      <trkpt lat="46.35625" lon="-0.54197">
        <ele>76</ele>
        <time>2013-10-24T15:25:17Z</time>
      </trkpt>
      <trkpt lat="46.35622" lon="-0.5419">
        <ele>76</ele>
        <time>2013-10-24T15:25:22Z</time>
      </trkpt>
      <trkpt lat="46.3562" lon="-0.5418">
        <ele>76</ele>
        <time>2013-10-24T15:25:27Z</time>
      </trkpt>
      <trkpt lat="46.35618" lon="-0.54175">
        <ele>76</ele>
        <time>2013-10-24T15:25:32Z</time>
      </trkpt>
      <trkpt lat="46.35616" lon="-0.54168">
        <ele>76</ele>
        <time>2013-10-24T15:25:37Z</time>
      </trkpt>
      <trkpt lat="46.35613" lon="-0.54162">
        <ele>76</ele>
        <time>2013-10-24T15:25:42Z</time>
      </trkpt>
      <trkpt lat="46.3561" lon="-0.54155">
        <ele>76</ele>
        <time>2013-10-24T15:25:47Z</time>
      </trkpt>
      <trkpt lat="46.35608" lon="-0.54149">
        <ele>76</ele>
        <time>2013-10-24T15:25:52Z</time>
      </trkpt>
      <trkpt lat="46.35606" lon="-0.5414">
        <ele>76</ele>
        <time>2013-10-24T15:25:57Z</time>
      </trkpt>
      <trkpt lat="46.35603" lon="-0.54132">
        <ele>76</ele>
        <time>2013-10-24T15:26:02Z</time>
      </trkpt>
      <trkpt lat="46.35602" lon="-0.54125">
        <ele>76</ele>
        <time>2013-10-24T15:26:07Z</time>
      </trkpt>
      <trkpt lat="46.356" lon="-0.54117">
        <ele>76</ele>
        <time>2013-10-24T15:26:12Z</time>
      </trkpt>
      <trkpt lat="46.35597" lon="-0.54109">
        <ele>76</ele>
        <time>2013-10-24T15:26:17Z</time>
      </trkpt>
      <trkpt lat="46.35595" lon="-0.54102">
        <ele>76</ele>
        <time>2013-10-24T15:26:22Z</time>
      </trkpt>
      <trkpt lat="46.35593" lon="-0.54094">
        <ele>76</ele>
        <time>2013-10-24T15:26:27Z</time>
      </trkpt>
      <trkpt lat="46.3559" lon="-0.54087">
        <ele>76</ele>
        <time>2013-10-24T15:26:32Z</time>
      </trkpt>
      <trkpt lat="46.35587" lon="-0.54081">
        <ele>76</ele>
        <time>2013-10-24T15:26:37Z</time>
      </trkpt>
      <trkpt lat="46.35583" lon="-0.54071">
        <ele>76</ele>
        <time>2013-10-24T15:26:42Z</time>
      </trkpt>
      <trkpt lat="46.35579" lon="-0.54066">
        <ele>76</ele>
        <time>2013-10-24T15:26:47Z</time>
      </trkpt>
      <trkpt lat="46.35575" lon="-0.54062">
        <ele>76</ele>
        <time>2013-10-24T15:26:52Z</time>
      </trkpt>
      <trkpt lat="46.35573" lon="-0.54057">
        <ele>76</ele>
        <time>2013-10-24T15:26:57Z</time>
      </trkpt>
      <trkpt lat="46.35568" lon="-0.54053">
        <ele>76</ele>
        <time>2013-10-24T15:27:02Z</time>
      </trkpt>
      <trkpt lat="46.35565" lon="-0.5405">
        <ele>76</ele>
        <time>2013-10-24T15:27:07Z</time>
      </trkpt>
      <trkpt lat="46.35563" lon="-0.54043">
        <ele>76</ele>
        <time>2013-10-24T15:27:12Z</time>
      </trkpt>
      <trkpt lat="46.35558" lon="-0.54037">
        <ele>76</ele>
        <time>2013-10-24T15:27:17Z</time>
      </trkpt>
      <trkpt lat="46.35555" lon="-0.5403">
        <ele>76</ele>
        <time>2013-10-24T15:27:22Z</time>
      </trkpt>
      <trkpt lat="46.35551" lon="-0.54022">
        <ele>76</ele>
        <time>2013-10-24T15:27:27Z</time>
      </trkpt>
      <trkpt lat="46.35548" lon="-0.54015">
        <ele>76</ele>
        <time>2013-10-24T15:27:32Z</time>
      </trkpt>
      <trkpt lat="46.35544" lon="-0.54011">
        <ele>76</ele>
        <time>2013-10-24T15:27:37Z</time>
      </trkpt>
      <trkpt lat="46.35541" lon="-0.54004">
        <ele>75</ele>
        <time>2013-10-24T15:27:42Z</time>
      </trkpt>
      <trkpt lat="46.35537" lon="-0.53996">
        <ele>75</ele>
        <time>2013-10-24T15:27:47Z</time>
      </trkpt>
      <trkpt lat="46.35534" lon="-0.5399">
        <ele>75</ele>
        <time>2013-10-24T15:27:52Z</time>
      </trkpt>
      <trkpt lat="46.35531" lon="-0.53983">
        <ele>75</ele>
        <time>2013-10-24T15:27:57Z</time>
      </trkpt>
      <trkpt lat="46.35527" lon="-0.53977">
        <ele>75</ele>
        <time>2013-10-24T15:28:02Z</time>
      </trkpt>
      <trkpt lat="46.35524" lon="-0.53971">
        <ele>75</ele>
        <time>2013-10-24T15:28:07Z</time>
      </trkpt>
      <trkpt lat="46.35521" lon="-0.53965">
        <ele>75</ele>
        <time>2013-10-24T15:28:12Z</time>
      </trkpt>
      <trkpt lat="46.35518" lon="-0.53958">
        <ele>74</ele>
        <time>2013-10-24T15:28:17Z</time>
      </trkpt>
      <trkpt lat="46.35518" lon="-0.53966">
        <ele>75</ele>
        <time>2013-10-24T15:28:22Z</time>
      </trkpt>
      <trkpt lat="46.35515" lon="-0.53956">
        <ele>74</ele>
        <time>2013-10-24T15:28:27Z</time>
      </trkpt>
      <trkpt lat="46.35513" lon="-0.5395">
        <ele>74</ele>
        <time>2013-10-24T15:28:32Z</time>
      </trkpt>
      <trkpt lat="46.35511" lon="-0.53956">
        <ele>74</ele>
        <time>2013-10-24T15:28:37Z</time>
      </trkpt>
      <trkpt lat="46.35508" lon="-0.53953">
        <ele>74</ele>
        <time>2013-10-24T15:28:42Z</time>
      </trkpt>
      <trkpt lat="46.35506" lon="-0.53949">
        <ele>74</ele>
        <time>2013-10-24T15:28:47Z</time>
      </trkpt>
      <trkpt lat="46.35504" lon="-0.53943">
        <ele>74</ele>
        <time>2013-10-24T15:28:52Z</time>
      </trkpt>
      <trkpt lat="46.35501" lon="-0.53936">
        <ele>74</ele>
        <time>2013-10-24T15:28:57Z</time>
      </trkpt>
      <trkpt lat="46.35499" lon="-0.53931">
        <ele>74</ele>
        <time>2013-10-24T15:29:02Z</time>
      </trkpt>
      <trkpt lat="46.35498" lon="-0.53925">
        <ele>74</ele>
        <time>2013-10-24T15:29:07Z</time>
      </trkpt>
      <trkpt lat="46.35496" lon="-0.53922">
        <ele>74</ele>
        <time>2013-10-24T15:29:12Z</time>
      </trkpt>
      <trkpt lat="46.35494" lon="-0.53919">
        <ele>74</ele>
        <time>2013-10-24T15:29:17Z</time>
      </trkpt>
      <trkpt lat="46.35491" lon="-0.53914">
        <ele>74</ele>
        <time>2013-10-24T15:29:22Z</time>
      </trkpt>
      <trkpt lat="46.35489" lon="-0.53908">
        <ele>74</ele>
        <time>2013-10-24T15:29:27Z</time>
      </trkpt>
      <trkpt lat="46.35487" lon="-0.539">
        <ele>74</ele>
        <time>2013-10-24T15:29:32Z</time>
      </trkpt>
      <trkpt lat="46.35485" lon="-0.53896">
        <ele>74</ele>
        <time>2013-10-24T15:29:37Z</time>
      </trkpt>
      <trkpt lat="46.35483" lon="-0.53892">
        <ele>74</ele>
        <time>2013-10-24T15:29:42Z</time>
      </trkpt>
      <trkpt lat="46.35479" lon="-0.53885">
        <ele>74</ele>
        <time>2013-10-24T15:31:33Z</time>
      </trkpt>
      <trkpt lat="46.35479" lon="-0.53885">
        <ele>74</ele>
        <time>2013-10-24T15:31:38Z</time>
      </trkpt>
      <trkpt lat="46.35478" lon="-0.53877">
        <ele>74</ele>
        <time>2013-10-24T15:31:43Z</time>
      </trkpt>
      <trkpt lat="46.35479" lon="-0.53874">
        <ele>75</ele>
        <time>2013-10-24T15:31:48Z</time>
      </trkpt>
      <trkpt lat="46.35478" lon="-0.53872">
        <ele>75</ele>
        <time>2013-10-24T15:31:53Z</time>
      </trkpt>
      <trkpt lat="46.35474" lon="-0.53864">
        <ele>75</ele>
        <time>2013-10-24T15:31:58Z</time>
      </trkpt>
      <trkpt lat="46.35471" lon="-0.53857">
        <ele>75</ele>
        <time>2013-10-24T15:32:03Z</time>
      </trkpt>
      <trkpt lat="46.35469" lon="-0.53862">
        <ele>75</ele>
        <time>2013-10-24T15:32:08Z</time>
      </trkpt>
      <trkpt lat="46.35466" lon="-0.53853">
        <ele>75</ele>
        <time>2013-10-24T15:32:13Z</time>
      </trkpt>
      <trkpt lat="46.35466" lon="-0.53852">
        <ele>75</ele>
        <time>2013-10-24T15:32:18Z</time>
      </trkpt>
      <trkpt lat="46.35462" lon="-0.53846">
        <ele>75</ele>
        <time>2013-10-24T15:32:23Z</time>
      </trkpt>
      <trkpt lat="46.35461" lon="-0.53841">
        <ele>75</ele>
        <time>2013-10-24T15:32:28Z</time>
      </trkpt>
      <trkpt lat="46.35457" lon="-0.53832">
        <ele>73</ele>
        <time>2013-10-24T15:32:33Z</time>
      </trkpt>
      <trkpt lat="46.35453" lon="-0.53821">
        <ele>73</ele>
        <time>2013-10-24T15:32:38Z</time>
      </trkpt>
      <trkpt lat="46.3545" lon="-0.53814">
        <ele>73</ele>
        <time>2013-10-24T15:32:43Z</time>
      </trkpt>
      <trkpt lat="46.35449" lon="-0.53814">
        <ele>73</ele>
        <time>2013-10-24T15:32:48Z</time>
      </trkpt>
      <trkpt lat="46.35449" lon="-0.53814">
        <ele>73</ele>
        <time>2013-10-24T15:32:53Z</time>
      </trkpt>
      <trkpt lat="46.35449" lon="-0.53811">
        <ele>73</ele>
        <time>2013-10-24T15:32:58Z</time>
      </trkpt>
      <trkpt lat="46.35446" lon="-0.53805">
        <ele>73</ele>
        <time>2013-10-24T15:33:03Z</time>
      </trkpt>
      <trkpt lat="46.35444" lon="-0.53798">
        <ele>73</ele>
        <time>2013-10-24T15:33:08Z</time>
      </trkpt>
      <trkpt lat="46.35441" lon="-0.5379">
        <ele>73</ele>
        <time>2013-10-24T15:33:13Z</time>
      </trkpt>
      <trkpt lat="46.35438" lon="-0.53785">
        <ele>73</ele>
        <time>2013-10-24T15:33:18Z</time>
      </trkpt>
      <trkpt lat="46.35435" lon="-0.53782">
        <ele>73</ele>
        <time>2013-10-24T15:33:23Z</time>
      </trkpt>
      <trkpt lat="46.35433" lon="-0.53777">
        <ele>73</ele>
        <time>2013-10-24T15:33:28Z</time>
      </trkpt>
      <trkpt lat="46.3543" lon="-0.53779">
        <ele>73</ele>
        <time>2013-10-24T15:33:33Z</time>
      </trkpt>
      <trkpt lat="46.35426" lon="-0.53771">
        <ele>73</ele>
        <time>2013-10-24T15:33:38Z</time>
      </trkpt>
      <trkpt lat="46.35423" lon="-0.53764">
        <ele>73</ele>
        <time>2013-10-24T15:33:43Z</time>
      </trkpt>
      <trkpt lat="46.3542" lon="-0.5376">
        <ele>73</ele>
        <time>2013-10-24T15:33:48Z</time>
      </trkpt>
      <trkpt lat="46.35416" lon="-0.53751">
        <ele>73</ele>
        <time>2013-10-24T15:33:53Z</time>
      </trkpt>
      <trkpt lat="46.35413" lon="-0.53747">
        <ele>73</ele>
        <time>2013-10-24T15:33:58Z</time>
      </trkpt>
      <trkpt lat="46.35411" lon="-0.53743">
        <ele>73</ele>
        <time>2013-10-24T15:34:03Z</time>
      </trkpt>
      <trkpt lat="46.35408" lon="-0.53735">
        <ele>73</ele>
        <time>2013-10-24T15:34:08Z</time>
      </trkpt>
      <trkpt lat="46.35405" lon="-0.53732">
        <ele>73</ele>
        <time>2013-10-24T15:34:13Z</time>
      </trkpt>
      <trkpt lat="46.35403" lon="-0.53725">
        <ele>73</ele>
        <time>2013-10-24T15:34:18Z</time>
      </trkpt>
      <trkpt lat="46.35398" lon="-0.5371">
        <ele>73</ele>
        <time>2013-10-24T15:34:23Z</time>
      </trkpt>
      <trkpt lat="46.35395" lon="-0.53704">
        <ele>72</ele>
        <time>2013-10-24T15:34:28Z</time>
      </trkpt>
      <trkpt lat="46.35392" lon="-0.53695">
        <ele>72</ele>
        <time>2013-10-24T15:34:33Z</time>
      </trkpt>
      <trkpt lat="46.35389" lon="-0.53685">
        <ele>72</ele>
        <time>2013-10-24T15:34:38Z</time>
      </trkpt>
      <trkpt lat="46.35387" lon="-0.53681">
        <ele>72</ele>
        <time>2013-10-24T15:34:43Z</time>
      </trkpt>
      <trkpt lat="46.35384" lon="-0.53675">
        <ele>72</ele>
        <time>2013-10-24T15:34:48Z</time>
      </trkpt>
      <trkpt lat="46.35384" lon="-0.53677">
        <ele>72</ele>
        <time>2013-10-24T15:34:53Z</time>
      </trkpt>
      <trkpt lat="46.35382" lon="-0.53674">
        <ele>72</ele>
        <time>2013-10-24T15:34:58Z</time>
      </trkpt>
      <trkpt lat="46.3538" lon="-0.53671">
        <ele>72</ele>
        <time>2013-10-24T15:35:03Z</time>
      </trkpt>
      <trkpt lat="46.35378" lon="-0.53668">
        <ele>72</ele>
        <time>2013-10-24T15:35:08Z</time>
      </trkpt>
      <trkpt lat="46.35374" lon="-0.53664">
        <ele>69</ele>
        <time>2013-10-24T15:35:13Z</time>
      </trkpt>
      <trkpt lat="46.3537" lon="-0.53657">
        <ele>69</ele>
        <time>2013-10-24T15:35:18Z</time>
      </trkpt>
      <trkpt lat="46.35367" lon="-0.53656">
        <ele>69</ele>
        <time>2013-10-24T15:35:23Z</time>
      </trkpt>
      <trkpt lat="46.35363" lon="-0.53643">
        <ele>69</ele>
        <time>2013-10-24T15:35:28Z</time>
      </trkpt>
      <trkpt lat="46.35359" lon="-0.53632">
        <ele>69</ele>
        <time>2013-10-24T15:35:33Z</time>
      </trkpt>
      <trkpt lat="46.35354" lon="-0.53617">
        <ele>70</ele>
        <time>2013-10-24T15:35:38Z</time>
      </trkpt>
      <trkpt lat="46.35352" lon="-0.5362">
        <ele>70</ele>
        <time>2013-10-24T15:35:43Z</time>
      </trkpt>
      <trkpt lat="46.35348" lon="-0.53611">
        <ele>70</ele>
        <time>2013-10-24T15:35:48Z</time>
      </trkpt>
      <trkpt lat="46.35345" lon="-0.5361">
        <ele>70</ele>
        <time>2013-10-24T15:35:53Z</time>
      </trkpt>
      <trkpt lat="46.35342" lon="-0.53602">
        <ele>70</ele>
        <time>2013-10-24T15:35:58Z</time>
      </trkpt>
      <trkpt lat="46.35339" lon="-0.53594">
        <ele>70</ele>
        <time>2013-10-24T15:36:03Z</time>
      </trkpt>
      <trkpt lat="46.35336" lon="-0.53587">
        <ele>70</ele>
        <time>2013-10-24T15:36:08Z</time>
      </trkpt>
      <trkpt lat="46.35334" lon="-0.53581">
        <ele>70</ele>
        <time>2013-10-24T15:36:13Z</time>
      </trkpt>
      <trkpt lat="46.3533" lon="-0.53573">
        <ele>70</ele>
        <time>2013-10-24T15:36:18Z</time>
      </trkpt>
      <trkpt lat="46.35327" lon="-0.53566">
        <ele>70</ele>
        <time>2013-10-24T15:36:23Z</time>
      </trkpt>
      <trkpt lat="46.35323" lon="-0.53559">
        <ele>70</ele>
        <time>2013-10-24T15:36:28Z</time>
      </trkpt>
      <trkpt lat="46.35319" lon="-0.53548">
        <ele>70</ele>
        <time>2013-10-24T15:36:33Z</time>
      </trkpt>
      <trkpt lat="46.35315" lon="-0.53537">
        <ele>71</ele>
        <time>2013-10-24T15:36:38Z</time>
      </trkpt>
      <trkpt lat="46.35312" lon="-0.53526">
        <ele>71</ele>
        <time>2013-10-24T15:36:43Z</time>
      </trkpt>
      <trkpt lat="46.35309" lon="-0.5352">
        <ele>71</ele>
        <time>2013-10-24T15:36:48Z</time>
      </trkpt>
      <trkpt lat="46.35306" lon="-0.53511">
        <ele>71</ele>
        <time>2013-10-24T15:36:53Z</time>
      </trkpt>
      <trkpt lat="46.35302" lon="-0.53501">
        <ele>71</ele>
        <time>2013-10-24T15:36:58Z</time>
      </trkpt>
      <trkpt lat="46.35299" lon="-0.53494">
        <ele>71</ele>
        <time>2013-10-24T15:37:03Z</time>
      </trkpt>
      <trkpt lat="46.35296" lon="-0.53491">
        <ele>71</ele>
        <time>2013-10-24T15:37:08Z</time>
      </trkpt>
      <trkpt lat="46.35293" lon="-0.53487">
        <ele>71</ele>
        <time>2013-10-24T15:37:13Z</time>
      </trkpt>
      <trkpt lat="46.3529" lon="-0.53481">
        <ele>69</ele>
        <time>2013-10-24T15:37:18Z</time>
      </trkpt>
      <trkpt lat="46.35287" lon="-0.5348">
        <ele>69</ele>
        <time>2013-10-24T15:37:23Z</time>
      </trkpt>
      <trkpt lat="46.35284" lon="-0.53475">
        <ele>69</ele>
        <time>2013-10-24T15:37:28Z</time>
      </trkpt>
      <trkpt lat="46.35281" lon="-0.53467">
        <ele>69</ele>
        <time>2013-10-24T15:37:33Z</time>
      </trkpt>
      <trkpt lat="46.35277" lon="-0.53454">
        <ele>68</ele>
        <time>2013-10-24T15:37:38Z</time>
      </trkpt>
      <trkpt lat="46.35273" lon="-0.53446">
        <ele>68</ele>
        <time>2013-10-24T15:37:43Z</time>
      </trkpt>
      <trkpt lat="46.35272" lon="-0.53442">
        <ele>68</ele>
        <time>2013-10-24T15:37:48Z</time>
      </trkpt>
      <trkpt lat="46.35269" lon="-0.53435">
        <ele>68</ele>
        <time>2013-10-24T15:37:53Z</time>
      </trkpt>
      <trkpt lat="46.35265" lon="-0.53428">
        <ele>68</ele>
        <time>2013-10-24T15:37:58Z</time>
      </trkpt>
      <trkpt lat="46.35262" lon="-0.53419">
        <ele>68</ele>
        <time>2013-10-24T15:38:03Z</time>
      </trkpt>
      <trkpt lat="46.35258" lon="-0.53412">
        <ele>68</ele>
        <time>2013-10-24T15:38:08Z</time>
      </trkpt>
      <trkpt lat="46.35255" lon="-0.53407">
        <ele>68</ele>
        <time>2013-10-24T15:38:13Z</time>
      </trkpt>
      <trkpt lat="46.35253" lon="-0.53399">
        <ele>68</ele>
        <time>2013-10-24T15:38:18Z</time>
      </trkpt>
      <trkpt lat="46.3525" lon="-0.53394">
        <ele>68</ele>
        <time>2013-10-24T15:38:23Z</time>
      </trkpt>
      <trkpt lat="46.35247" lon="-0.53388">
        <ele>68</ele>
        <time>2013-10-24T15:38:28Z</time>
      </trkpt>
      <trkpt lat="46.35242" lon="-0.53375">
        <ele>68</ele>
        <time>2013-10-24T15:38:33Z</time>
      </trkpt>
      <trkpt lat="46.35238" lon="-0.53367">
        <ele>67</ele>
        <time>2013-10-24T15:38:38Z</time>
      </trkpt>
      <trkpt lat="46.35235" lon="-0.53362">
        <ele>67</ele>
        <time>2013-10-24T15:38:43Z</time>
      </trkpt>
      <trkpt lat="46.35233" lon="-0.53355">
        <ele>67</ele>
        <time>2013-10-24T15:38:48Z</time>
      </trkpt>
      <trkpt lat="46.35231" lon="-0.53351">
        <ele>67</ele>
        <time>2013-10-24T15:38:53Z</time>
      </trkpt>
      <trkpt lat="46.35227" lon="-0.53343">
        <ele>67</ele>
        <time>2013-10-24T15:38:58Z</time>
      </trkpt>
      <trkpt lat="46.35225" lon="-0.53338">
        <ele>67</ele>
        <time>2013-10-24T15:39:03Z</time>
      </trkpt>
      <trkpt lat="46.35221" lon="-0.53331">
        <ele>67</ele>
        <time>2013-10-24T15:39:08Z</time>
      </trkpt>
      <trkpt lat="46.35218" lon="-0.53324">
        <ele>67</ele>
        <time>2013-10-24T15:39:13Z</time>
      </trkpt>
      <trkpt lat="46.35214" lon="-0.53318">
        <ele>67</ele>
        <time>2013-10-24T15:39:18Z</time>
      </trkpt>
      <trkpt lat="46.35212" lon="-0.53312">
        <ele>67</ele>
        <time>2013-10-24T15:39:23Z</time>
      </trkpt>
      <trkpt lat="46.3521" lon="-0.53309">
        <ele>67</ele>
        <time>2013-10-24T15:39:28Z</time>
      </trkpt>
      <trkpt lat="46.35209" lon="-0.53313">
        <ele>67</ele>
        <time>2013-10-24T15:39:33Z</time>
      </trkpt>
      <trkpt lat="46.35206" lon="-0.53308">
        <ele>64</ele>
        <time>2013-10-24T15:39:38Z</time>
      </trkpt>
      <trkpt lat="46.352" lon="-0.53292">
        <ele>64</ele>
        <time>2013-10-24T15:39:43Z</time>
      </trkpt>
      <trkpt lat="46.35196" lon="-0.53283">
        <ele>64</ele>
        <time>2013-10-24T15:39:48Z</time>
      </trkpt>
      <trkpt lat="46.35191" lon="-0.53277">
        <ele>64</ele>
        <time>2013-10-24T15:39:53Z</time>
      </trkpt>
      <trkpt lat="46.35187" lon="-0.53269">
        <ele>64</ele>
        <time>2013-10-24T15:39:58Z</time>
      </trkpt>
      <trkpt lat="46.35184" lon="-0.53264">
        <ele>64</ele>
        <time>2013-10-24T15:40:03Z</time>
      </trkpt>
      <trkpt lat="46.35179" lon="-0.53255">
        <ele>64</ele>
        <time>2013-10-24T15:40:08Z</time>
      </trkpt>
      <trkpt lat="46.35175" lon="-0.5325">
        <ele>64</ele>
        <time>2013-10-24T15:40:13Z</time>
      </trkpt>
      <trkpt lat="46.35172" lon="-0.53243">
        <ele>64</ele>
        <time>2013-10-24T15:40:18Z</time>
      </trkpt>
      <trkpt lat="46.35168" lon="-0.53236">
        <ele>64</ele>
        <time>2013-10-24T15:40:23Z</time>
      </trkpt>
      <trkpt lat="46.35163" lon="-0.53228">
        <ele>64</ele>
        <time>2013-10-24T15:40:28Z</time>
      </trkpt>
      <trkpt lat="46.3516" lon="-0.53222">
        <ele>64</ele>
        <time>2013-10-24T15:40:33Z</time>
      </trkpt>
      <trkpt lat="46.35157" lon="-0.53217">
        <ele>64</ele>
        <time>2013-10-24T15:40:38Z</time>
      </trkpt>
      <trkpt lat="46.35152" lon="-0.53209">
        <ele>64</ele>
        <time>2013-10-24T15:40:43Z</time>
      </trkpt>
      <trkpt lat="46.35148" lon="-0.53203">
        <ele>64</ele>
        <time>2013-10-24T15:40:48Z</time>
      </trkpt>
      <trkpt lat="46.35145" lon="-0.53197">
        <ele>64</ele>
        <time>2013-10-24T15:40:53Z</time>
      </trkpt>
      <trkpt lat="46.35141" lon="-0.53191">
        <ele>64</ele>
        <time>2013-10-24T15:40:58Z</time>
      </trkpt>
      <trkpt lat="46.35137" lon="-0.53186">
        <ele>64</ele>
        <time>2013-10-24T15:41:03Z</time>
      </trkpt>
      <trkpt lat="46.35133" lon="-0.5318">
        <ele>64</ele>
        <time>2013-10-24T15:41:08Z</time>
      </trkpt>
      <trkpt lat="46.3513" lon="-0.53174">
        <ele>64</ele>
        <time>2013-10-24T15:41:13Z</time>
      </trkpt>
      <trkpt lat="46.35125" lon="-0.53168">
        <ele>64</ele>
        <time>2013-10-24T15:41:18Z</time>
      </trkpt>
      <trkpt lat="46.35121" lon="-0.53161">
        <ele>64</ele>
        <time>2013-10-24T15:41:23Z</time>
      </trkpt>
      <trkpt lat="46.35118" lon="-0.53156">
        <ele>64</ele>
        <time>2013-10-24T15:41:28Z</time>
      </trkpt>
      <trkpt lat="46.35114" lon="-0.53151">
        <ele>64</ele>
        <time>2013-10-24T15:41:33Z</time>
      </trkpt>
      <trkpt lat="46.35112" lon="-0.53148">
        <ele>64</ele>
        <time>2013-10-24T15:41:38Z</time>
      </trkpt>
      <trkpt lat="46.35109" lon="-0.53147">
        <ele>64</ele>
        <time>2013-10-24T15:41:43Z</time>
      </trkpt>
      <trkpt lat="46.35107" lon="-0.53149">
        <ele>64</ele>
        <time>2013-10-24T15:41:48Z</time>
      </trkpt>
      <trkpt lat="46.35106" lon="-0.5315">
        <ele>64</ele>
        <time>2013-10-24T15:41:53Z</time>
      </trkpt>
      <trkpt lat="46.35103" lon="-0.53152">
        <ele>64</ele>
        <time>2013-10-24T15:41:58Z</time>
      </trkpt>
      <trkpt lat="46.35096" lon="-0.53153">
        <ele>64</ele>
        <time>2013-10-24T15:42:03Z</time>
      </trkpt>
      <trkpt lat="46.3509" lon="-0.53154">
        <ele>64</ele>
        <time>2013-10-24T15:42:08Z</time>
      </trkpt>
      <trkpt lat="46.35086" lon="-0.53154">
        <ele>64</ele>
        <time>2013-10-24T15:42:13Z</time>
      </trkpt>
      <trkpt lat="46.35079" lon="-0.53154">
        <ele>64</ele>
        <time>2013-10-24T15:42:18Z</time>
      </trkpt>
      <trkpt lat="46.35076" lon="-0.53157">
        <ele>64</ele>
        <time>2013-10-24T15:42:23Z</time>
      </trkpt>
      <trkpt lat="46.3507" lon="-0.5316">
        <ele>64</ele>
        <time>2013-10-24T15:42:28Z</time>
      </trkpt>
      <trkpt lat="46.35063" lon="-0.53161">
        <ele>64</ele>
        <time>2013-10-24T15:42:33Z</time>
      </trkpt>
      <trkpt lat="46.35062" lon="-0.53164">
        <ele>64</ele>
        <time>2013-10-24T15:42:38Z</time>
      </trkpt>
      <trkpt lat="46.35058" lon="-0.53164">
        <ele>64</ele>
        <time>2013-10-24T15:42:43Z</time>
      </trkpt>
      <trkpt lat="46.3505" lon="-0.53165">
        <ele>64</ele>
        <time>2013-10-24T15:42:48Z</time>
      </trkpt>
      <trkpt lat="46.35043" lon="-0.53166">
        <ele>64</ele>
        <time>2013-10-24T15:42:53Z</time>
      </trkpt>
      <trkpt lat="46.35039" lon="-0.53168">
        <ele>60</ele>
        <time>2013-10-24T15:42:58Z</time>
      </trkpt>
      <trkpt lat="46.35034" lon="-0.53169">
        <ele>60</ele>
        <time>2013-10-24T15:43:03Z</time>
      </trkpt>
      <trkpt lat="46.35029" lon="-0.53169">
        <ele>60</ele>
        <time>2013-10-24T15:43:08Z</time>
      </trkpt>
      <trkpt lat="46.35022" lon="-0.53167">
        <ele>60</ele>
        <time>2013-10-24T15:43:13Z</time>
      </trkpt>
      <trkpt lat="46.35019" lon="-0.5316">
        <ele>60</ele>
        <time>2013-10-24T15:43:18Z</time>
      </trkpt>
      <trkpt lat="46.3502" lon="-0.53153">
        <ele>60</ele>
        <time>2013-10-24T15:43:23Z</time>
      </trkpt>
      <trkpt lat="46.35019" lon="-0.53145">
        <ele>60</ele>
        <time>2013-10-24T15:43:28Z</time>
      </trkpt>
      <trkpt lat="46.35017" lon="-0.53134">
        <ele>60</ele>
        <time>2013-10-24T15:43:33Z</time>
      </trkpt>
      <trkpt lat="46.35017" lon="-0.53132">
        <ele>60</ele>
        <time>2013-10-24T15:43:38Z</time>
      </trkpt>
      <trkpt lat="46.35017" lon="-0.53129">
        <ele>60</ele>
        <time>2013-10-24T15:43:43Z</time>
      </trkpt>
      <trkpt lat="46.35013" lon="-0.53125">
        <ele>60</ele>
        <time>2013-10-24T15:43:48Z</time>
      </trkpt>
      <trkpt lat="46.35008" lon="-0.53125">
        <ele>60</ele>
        <time>2013-10-24T15:43:53Z</time>
      </trkpt>
      <trkpt lat="46.35005" lon="-0.53126">
        <ele>60</ele>
        <time>2013-10-24T15:43:58Z</time>
      </trkpt>
      <trkpt lat="46.35003" lon="-0.53125">
        <ele>60</ele>
        <time>2013-10-24T15:44:03Z</time>
      </trkpt>
      <trkpt lat="46.34999" lon="-0.53131">
        <ele>60</ele>
        <time>2013-10-24T15:44:08Z</time>
      </trkpt>
      <trkpt lat="46.34995" lon="-0.53134">
        <ele>60</ele>
        <time>2013-10-24T15:44:13Z</time>
      </trkpt>
      <trkpt lat="46.3499" lon="-0.53136">
        <ele>60</ele>
        <time>2013-10-24T15:44:18Z</time>
      </trkpt>
      <trkpt lat="46.34985" lon="-0.53139">
        <ele>60</ele>
        <time>2013-10-24T15:44:23Z</time>
      </trkpt>
      <trkpt lat="46.34979" lon="-0.53141">
        <ele>60</ele>
        <time>2013-10-24T15:44:28Z</time>
      </trkpt>
      <trkpt lat="46.34975" lon="-0.53144">
        <ele>60</ele>
        <time>2013-10-24T15:44:33Z</time>
      </trkpt>
      <trkpt lat="46.3497" lon="-0.53147">
        <ele>60</ele>
        <time>2013-10-24T15:44:38Z</time>
      </trkpt>
      <trkpt lat="46.34964" lon="-0.53149">
        <ele>60</ele>
        <time>2013-10-24T15:44:43Z</time>
      </trkpt>
      <trkpt lat="46.3496" lon="-0.53151">
        <ele>60</ele>
        <time>2013-10-24T15:44:48Z</time>
      </trkpt>
      <trkpt lat="46.34955" lon="-0.53154">
        <ele>60</ele>
        <time>2013-10-24T15:44:53Z</time>
      </trkpt>
      <trkpt lat="46.34949" lon="-0.53157">
        <ele>60</ele>
        <time>2013-10-24T15:44:58Z</time>
      </trkpt>
      <trkpt lat="46.34944" lon="-0.53158">
        <ele>60</ele>
        <time>2013-10-24T15:45:03Z</time>
      </trkpt>
      <trkpt lat="46.34937" lon="-0.53161">
        <ele>60</ele>
        <time>2013-10-24T15:45:08Z</time>
      </trkpt>
      <trkpt lat="46.34933" lon="-0.53165">
        <ele>60</ele>
        <time>2013-10-24T15:45:13Z</time>
      </trkpt>
      <trkpt lat="46.34927" lon="-0.53168">
        <ele>60</ele>
        <time>2013-10-24T15:45:18Z</time>
      </trkpt>
      <trkpt lat="46.34923" lon="-0.53168">
        <ele>60</ele>
        <time>2013-10-24T15:45:23Z</time>
      </trkpt>
      <trkpt lat="46.34919" lon="-0.5317">
        <ele>60</ele>
        <time>2013-10-24T15:45:28Z</time>
      </trkpt>
      <trkpt lat="46.34914" lon="-0.53174">
        <ele>60</ele>
        <time>2013-10-24T15:45:33Z</time>
      </trkpt>
      <trkpt lat="46.34908" lon="-0.53177">
        <ele>60</ele>
        <time>2013-10-24T15:45:38Z</time>
      </trkpt>
      <trkpt lat="46.349" lon="-0.53179">
        <ele>60</ele>
        <time>2013-10-24T15:45:43Z</time>
      </trkpt>
      <trkpt lat="46.34893" lon="-0.53181">
        <ele>60</ele>
        <time>2013-10-24T15:45:48Z</time>
      </trkpt>
      <trkpt lat="46.34888" lon="-0.53184">
        <ele>60</ele>
        <time>2013-10-24T15:45:53Z</time>
      </trkpt>
      <trkpt lat="46.34885" lon="-0.53187">
        <ele>60</ele>
        <time>2013-10-24T15:45:58Z</time>
      </trkpt>
      <trkpt lat="46.34882" lon="-0.5319">
        <ele>60</ele>
        <time>2013-10-24T15:46:03Z</time>
      </trkpt>
      <trkpt lat="46.34877" lon="-0.53193">
        <ele>60</ele>
        <time>2013-10-24T15:46:08Z</time>
      </trkpt>
      <trkpt lat="46.34873" lon="-0.53196">
        <ele>57</ele>
        <time>2013-10-24T15:46:13Z</time>
      </trkpt>
      <trkpt lat="46.34868" lon="-0.53199">
        <ele>57</ele>
        <time>2013-10-24T15:46:18Z</time>
      </trkpt>
      <trkpt lat="46.34865" lon="-0.53202">
        <ele>57</ele>
        <time>2013-10-24T15:46:23Z</time>
      </trkpt>
      <trkpt lat="46.34858" lon="-0.53204">
        <ele>57</ele>
        <time>2013-10-24T15:46:28Z</time>
      </trkpt>
      <trkpt lat="46.34852" lon="-0.53207">
        <ele>57</ele>
        <time>2013-10-24T15:46:33Z</time>
      </trkpt>
      <trkpt lat="46.34848" lon="-0.5321">
        <ele>56</ele>
        <time>2013-10-24T15:46:38Z</time>
      </trkpt>
      <trkpt lat="46.34843" lon="-0.53212">
        <ele>56</ele>
        <time>2013-10-24T15:46:43Z</time>
      </trkpt>
      <trkpt lat="46.34837" lon="-0.53213">
        <ele>56</ele>
        <time>2013-10-24T15:46:48Z</time>
      </trkpt>
      <trkpt lat="46.34831" lon="-0.53215">
        <ele>56</ele>
        <time>2013-10-24T15:46:53Z</time>
      </trkpt>
      <trkpt lat="46.34826" lon="-0.53217">
        <ele>56</ele>
        <time>2013-10-24T15:46:58Z</time>
      </trkpt>
      <trkpt lat="46.34821" lon="-0.53219">
        <ele>56</ele>
        <time>2013-10-24T15:47:03Z</time>
      </trkpt>
      <trkpt lat="46.34815" lon="-0.53221">
        <ele>56</ele>
        <time>2013-10-24T15:47:08Z</time>
      </trkpt>
      <trkpt lat="46.34809" lon="-0.53224">
        <ele>56</ele>
        <time>2013-10-24T15:47:13Z</time>
      </trkpt>
      <trkpt lat="46.34805" lon="-0.53227">
        <ele>56</ele>
        <time>2013-10-24T15:47:18Z</time>
      </trkpt>
      <trkpt lat="46.348" lon="-0.53229">
        <ele>56</ele>
        <time>2013-10-24T15:47:23Z</time>
      </trkpt>
      <trkpt lat="46.34795" lon="-0.53233">
        <ele>56</ele>
        <time>2013-10-24T15:47:28Z</time>
      </trkpt>
      <trkpt lat="46.34791" lon="-0.53236">
        <ele>55</ele>
        <time>2013-10-24T15:47:33Z</time>
      </trkpt>
      <trkpt lat="46.34786" lon="-0.53238">
        <ele>55</ele>
        <time>2013-10-24T15:47:38Z</time>
      </trkpt>
      <trkpt lat="46.34782" lon="-0.53241">
        <ele>55</ele>
        <time>2013-10-24T15:47:43Z</time>
      </trkpt>
      <trkpt lat="46.34775" lon="-0.53242">
        <ele>55</ele>
        <time>2013-10-24T15:47:48Z</time>
      </trkpt>
      <trkpt lat="46.3477" lon="-0.53242">
        <ele>55</ele>
        <time>2013-10-24T15:47:53Z</time>
      </trkpt>
      <trkpt lat="46.34765" lon="-0.53241">
        <ele>55</ele>
        <time>2013-10-24T15:47:58Z</time>
      </trkpt>
      <trkpt lat="46.34761" lon="-0.53238">
        <ele>55</ele>
        <time>2013-10-24T15:48:03Z</time>
      </trkpt>
      <trkpt lat="46.34757" lon="-0.53234">
        <ele>55</ele>
        <time>2013-10-24T15:48:08Z</time>
      </trkpt>
      <trkpt lat="46.34753" lon="-0.53233">
        <ele>55</ele>
        <time>2013-10-24T15:48:13Z</time>
      </trkpt>
      <trkpt lat="46.3475" lon="-0.53234">
        <ele>55</ele>
        <time>2013-10-24T15:48:18Z</time>
      </trkpt>
      <trkpt lat="46.34745" lon="-0.53236">
        <ele>55</ele>
        <time>2013-10-24T15:48:23Z</time>
      </trkpt>
      <trkpt lat="46.34742" lon="-0.53241">
        <ele>55</ele>
        <time>2013-10-24T15:48:28Z</time>
      </trkpt>
      <trkpt lat="46.34736" lon="-0.53241">
        <ele>55</ele>
        <time>2013-10-24T15:48:33Z</time>
      </trkpt>
      <trkpt lat="46.34733" lon="-0.53243">
        <ele>55</ele>
        <time>2013-10-24T15:48:38Z</time>
      </trkpt>
      <trkpt lat="46.34727" lon="-0.53247">
        <ele>55</ele>
        <time>2013-10-24T15:48:43Z</time>
      </trkpt>
      <trkpt lat="46.34722" lon="-0.5325">
        <ele>55</ele>
        <time>2013-10-24T15:48:48Z</time>
      </trkpt>
      <trkpt lat="46.34717" lon="-0.53252">
        <ele>55</ele>
        <time>2013-10-24T15:48:53Z</time>
      </trkpt>
      <trkpt lat="46.34711" lon="-0.53254">
        <ele>55</ele>
        <time>2013-10-24T15:48:58Z</time>
      </trkpt>
      <trkpt lat="46.34705" lon="-0.53256">
        <ele>52</ele>
        <time>2013-10-24T15:49:03Z</time>
      </trkpt>
      <trkpt lat="46.34699" lon="-0.53258">
        <ele>52</ele>
        <time>2013-10-24T15:49:08Z</time>
      </trkpt>
      <trkpt lat="46.34695" lon="-0.53261">
        <ele>52</ele>
        <time>2013-10-24T15:49:13Z</time>
      </trkpt>
      <trkpt lat="46.3469" lon="-0.53261">
        <ele>52</ele>
        <time>2013-10-24T15:49:18Z</time>
      </trkpt>
      <trkpt lat="46.34686" lon="-0.53263">
        <ele>52</ele>
        <time>2013-10-24T15:49:23Z</time>
      </trkpt>
      <trkpt lat="46.3468" lon="-0.53265">
        <ele>52</ele>
        <time>2013-10-24T15:49:28Z</time>
      </trkpt>
      <trkpt lat="46.34675" lon="-0.53266">
        <ele>52</ele>
        <time>2013-10-24T15:49:33Z</time>
      </trkpt>
      <trkpt lat="46.3467" lon="-0.53269">
        <ele>52</ele>
        <time>2013-10-24T15:49:38Z</time>
      </trkpt>
      <trkpt lat="46.34664" lon="-0.53272">
        <ele>52</ele>
        <time>2013-10-24T15:49:43Z</time>
      </trkpt>
      <trkpt lat="46.3466" lon="-0.53276">
        <ele>52</ele>
        <time>2013-10-24T15:49:48Z</time>
      </trkpt>
      <trkpt lat="46.34655" lon="-0.53282">
        <ele>52</ele>
        <time>2013-10-24T15:49:53Z</time>
      </trkpt>
      <trkpt lat="46.34654" lon="-0.5329">
        <ele>52</ele>
        <time>2013-10-24T15:49:58Z</time>
      </trkpt>
      <trkpt lat="46.34653" lon="-0.53296">
        <ele>53</ele>
        <time>2013-10-24T15:50:03Z</time>
      </trkpt>
      <trkpt lat="46.34651" lon="-0.53302">
        <ele>53</ele>
        <time>2013-10-24T15:50:08Z</time>
      </trkpt>
      <trkpt lat="46.34647" lon="-0.53307">
        <ele>53</ele>
        <time>2013-10-24T15:50:13Z</time>
      </trkpt>
      <trkpt lat="46.34644" lon="-0.53311">
        <ele>53</ele>
        <time>2013-10-24T15:50:18Z</time>
      </trkpt>
      <trkpt lat="46.34638" lon="-0.53313">
        <ele>53</ele>
        <time>2013-10-24T15:50:23Z</time>
      </trkpt>
      <trkpt lat="46.34633" lon="-0.53315">
        <ele>53</ele>
        <time>2013-10-24T15:50:28Z</time>
      </trkpt>
      <trkpt lat="46.34628" lon="-0.53319">
        <ele>53</ele>
        <time>2013-10-24T15:50:33Z</time>
      </trkpt>
      <trkpt lat="46.34622" lon="-0.53321">
        <ele>51</ele>
        <time>2013-10-24T15:50:38Z</time>
      </trkpt>
      <trkpt lat="46.34618" lon="-0.53323">
        <ele>51</ele>
        <time>2013-10-24T15:50:43Z</time>
      </trkpt>
      <trkpt lat="46.34614" lon="-0.53325">
        <ele>51</ele>
        <time>2013-10-24T15:50:48Z</time>
      </trkpt>
      <trkpt lat="46.34607" lon="-0.53328">
        <ele>51</ele>
        <time>2013-10-24T15:50:53Z</time>
      </trkpt>
      <trkpt lat="46.34602" lon="-0.5333">
        <ele>51</ele>
        <time>2013-10-24T15:50:58Z</time>
      </trkpt>
      <trkpt lat="46.34597" lon="-0.53332">
        <ele>51</ele>
        <time>2013-10-24T15:51:03Z</time>
      </trkpt>
      <trkpt lat="46.34592" lon="-0.53335">
        <ele>51</ele>
        <time>2013-10-24T15:51:08Z</time>
      </trkpt>
      <trkpt lat="46.34588" lon="-0.53337">
        <ele>51</ele>
        <time>2013-10-24T15:51:13Z</time>
      </trkpt>
      <trkpt lat="46.34584" lon="-0.5334">
        <ele>51</ele>
        <time>2013-10-24T15:51:18Z</time>
      </trkpt>
      <trkpt lat="46.34579" lon="-0.53343">
        <ele>51</ele>
        <time>2013-10-24T15:51:23Z</time>
      </trkpt>
      <trkpt lat="46.34574" lon="-0.53345">
        <ele>51</ele>
        <time>2013-10-24T15:51:28Z</time>
      </trkpt>
      <trkpt lat="46.3457" lon="-0.53347">
        <ele>51</ele>
        <time>2013-10-24T15:51:33Z</time>
      </trkpt>
      <trkpt lat="46.34565" lon="-0.5335">
        <ele>51</ele>
        <time>2013-10-24T15:51:38Z</time>
      </trkpt>
      <trkpt lat="46.34561" lon="-0.53352">
        <ele>51</ele>
        <time>2013-10-24T15:51:43Z</time>
      </trkpt>
      <trkpt lat="46.34558" lon="-0.53353">
        <ele>51</ele>
        <time>2013-10-24T15:51:48Z</time>
      </trkpt>
      <trkpt lat="46.34552" lon="-0.53356">
        <ele>51</ele>
        <time>2013-10-24T15:51:53Z</time>
      </trkpt>
      <trkpt lat="46.34548" lon="-0.53359">
        <ele>51</ele>
        <time>2013-10-24T15:51:58Z</time>
      </trkpt>
      <trkpt lat="46.34544" lon="-0.53363">
        <ele>51</ele>
        <time>2013-10-24T15:52:03Z</time>
      </trkpt>
      <trkpt lat="46.34539" lon="-0.53365">
        <ele>49</ele>
        <time>2013-10-24T15:52:08Z</time>
      </trkpt>
      <trkpt lat="46.34534" lon="-0.53367">
        <ele>49</ele>
        <time>2013-10-24T15:52:13Z</time>
      </trkpt>
      <trkpt lat="46.34529" lon="-0.53369">
        <ele>49</ele>
        <time>2013-10-24T15:52:18Z</time>
      </trkpt>
      <trkpt lat="46.34525" lon="-0.53371">
        <ele>49</ele>
        <time>2013-10-24T15:52:23Z</time>
      </trkpt>
      <trkpt lat="46.34521" lon="-0.53374">
        <ele>49</ele>
        <time>2013-10-24T15:52:28Z</time>
      </trkpt>
      <trkpt lat="46.34515" lon="-0.53376">
        <ele>49</ele>
        <time>2013-10-24T15:52:33Z</time>
      </trkpt>
      <trkpt lat="46.34512" lon="-0.53378">
        <ele>49</ele>
        <time>2013-10-24T15:52:38Z</time>
      </trkpt>
      <trkpt lat="46.34507" lon="-0.53381">
        <ele>49</ele>
        <time>2013-10-24T15:52:43Z</time>
      </trkpt>
      <trkpt lat="46.34503" lon="-0.53383">
        <ele>49</ele>
        <time>2013-10-24T15:52:48Z</time>
      </trkpt>
      <trkpt lat="46.34498" lon="-0.53386">
        <ele>49</ele>
        <time>2013-10-24T15:52:53Z</time>
      </trkpt>
      <trkpt lat="46.34495" lon="-0.53388">
        <ele>49</ele>
        <time>2013-10-24T15:52:58Z</time>
      </trkpt>
      <trkpt lat="46.3449" lon="-0.53391">
        <ele>49</ele>
        <time>2013-10-24T15:53:03Z</time>
      </trkpt>
      <trkpt lat="46.34484" lon="-0.53394">
        <ele>49</ele>
        <time>2013-10-24T15:53:08Z</time>
      </trkpt>
      <trkpt lat="46.3448" lon="-0.53396">
        <ele>49</ele>
        <time>2013-10-24T15:53:13Z</time>
      </trkpt>
      <trkpt lat="46.34477" lon="-0.53398">
        <ele>49</ele>
        <time>2013-10-24T15:53:18Z</time>
      </trkpt>
      <trkpt lat="46.34471" lon="-0.53401">
        <ele>49</ele>
        <time>2013-10-24T15:53:23Z</time>
      </trkpt>
      <trkpt lat="46.34466" lon="-0.53403">
        <ele>49</ele>
        <time>2013-10-24T15:53:28Z</time>
      </trkpt>
      <trkpt lat="46.34461" lon="-0.53406">
        <ele>49</ele>
        <time>2013-10-24T15:53:33Z</time>
      </trkpt>
      <trkpt lat="46.34455" lon="-0.53408">
        <ele>46</ele>
        <time>2013-10-24T15:53:38Z</time>
      </trkpt>
      <trkpt lat="46.34451" lon="-0.53411">
        <ele>46</ele>
        <time>2013-10-24T15:53:43Z</time>
      </trkpt>
      <trkpt lat="46.34446" lon="-0.53413">
        <ele>46</ele>
        <time>2013-10-24T15:53:48Z</time>
      </trkpt>
      <trkpt lat="46.34441" lon="-0.53416">
        <ele>46</ele>
        <time>2013-10-24T15:53:53Z</time>
      </trkpt>
      <trkpt lat="46.34437" lon="-0.53418">
        <ele>46</ele>
        <time>2013-10-24T15:53:58Z</time>
      </trkpt>
      <trkpt lat="46.34432" lon="-0.5342">
        <ele>46</ele>
        <time>2013-10-24T15:54:03Z</time>
      </trkpt>
      <trkpt lat="46.34427" lon="-0.53422">
        <ele>46</ele>
        <time>2013-10-24T15:54:08Z</time>
      </trkpt>
      <trkpt lat="46.34423" lon="-0.53425">
        <ele>46</ele>
        <time>2013-10-24T15:54:13Z</time>
      </trkpt>
      <trkpt lat="46.34418" lon="-0.53428">
        <ele>46</ele>
        <time>2013-10-24T15:54:18Z</time>
      </trkpt>
      <trkpt lat="46.34414" lon="-0.5343">
        <ele>46</ele>
        <time>2013-10-24T15:54:23Z</time>
      </trkpt>
      <trkpt lat="46.34408" lon="-0.53433">
        <ele>46</ele>
        <time>2013-10-24T15:54:28Z</time>
      </trkpt>
      <trkpt lat="46.34404" lon="-0.53436">
        <ele>46</ele>
        <time>2013-10-24T15:54:33Z</time>
      </trkpt>
      <trkpt lat="46.34401" lon="-0.53438">
        <ele>46</ele>
        <time>2013-10-24T15:54:38Z</time>
      </trkpt>
      <trkpt lat="46.34396" lon="-0.5344">
        <ele>46</ele>
        <time>2013-10-24T15:54:43Z</time>
      </trkpt>
      <trkpt lat="46.34391" lon="-0.53443">
        <ele>46</ele>
        <time>2013-10-24T15:54:48Z</time>
      </trkpt>
      <trkpt lat="46.34387" lon="-0.53446">
        <ele>46</ele>
        <time>2013-10-24T15:54:53Z</time>
      </trkpt>
      <trkpt lat="46.34383" lon="-0.53448">
        <ele>46</ele>
        <time>2013-10-24T15:54:58Z</time>
      </trkpt>
      <trkpt lat="46.34378" lon="-0.53451">
        <ele>46</ele>
        <time>2013-10-24T15:55:03Z</time>
      </trkpt>
      <trkpt lat="46.34374" lon="-0.53453">
        <ele>44</ele>
        <time>2013-10-24T15:55:08Z</time>
      </trkpt>
      <trkpt lat="46.3437" lon="-0.53455">
        <ele>44</ele>
        <time>2013-10-24T15:55:13Z</time>
      </trkpt>
      <trkpt lat="46.34366" lon="-0.53456">
        <ele>44</ele>
        <time>2013-10-24T15:55:18Z</time>
      </trkpt>
      <trkpt lat="46.34362" lon="-0.53458">
        <ele>43</ele>
        <time>2013-10-24T15:55:23Z</time>
      </trkpt>
      <trkpt lat="46.34357" lon="-0.53462">
        <ele>43</ele>
        <time>2013-10-24T15:55:28Z</time>
      </trkpt>
      <trkpt lat="46.34352" lon="-0.53463">
        <ele>43</ele>
        <time>2013-10-24T15:55:33Z</time>
      </trkpt>
      <trkpt lat="46.34346" lon="-0.53465">
        <ele>43</ele>
        <time>2013-10-24T15:55:38Z</time>
      </trkpt>
      <trkpt lat="46.34342" lon="-0.53468">
        <ele>43</ele>
        <time>2013-10-24T15:55:43Z</time>
      </trkpt>
      <trkpt lat="46.34338" lon="-0.53471">
        <ele>43</ele>
        <time>2013-10-24T15:55:48Z</time>
      </trkpt>
      <trkpt lat="46.34333" lon="-0.53473">
        <ele>43</ele>
        <time>2013-10-24T15:55:53Z</time>
      </trkpt>
      <trkpt lat="46.34326" lon="-0.53475">
        <ele>43</ele>
        <time>2013-10-24T15:55:58Z</time>
      </trkpt>
      <trkpt lat="46.3432" lon="-0.53478">
        <ele>43</ele>
        <time>2013-10-24T15:56:03Z</time>
      </trkpt>
      <trkpt lat="46.34315" lon="-0.53481">
        <ele>43</ele>
        <time>2013-10-24T15:56:08Z</time>
      </trkpt>
      <trkpt lat="46.3431" lon="-0.53485">
        <ele>43</ele>
        <time>2013-10-24T15:56:13Z</time>
      </trkpt>
      <trkpt lat="46.34305" lon="-0.53487">
        <ele>43</ele>
        <time>2013-10-24T15:56:18Z</time>
      </trkpt>
      <trkpt lat="46.343" lon="-0.5349">
        <ele>43</ele>
        <time>2013-10-24T15:56:23Z</time>
      </trkpt>
      <trkpt lat="46.34295" lon="-0.53493">
        <ele>43</ele>
        <time>2013-10-24T15:56:28Z</time>
      </trkpt>
      <trkpt lat="46.34291" lon="-0.53496">
        <ele>41</ele>
        <time>2013-10-24T15:56:33Z</time>
      </trkpt>
      <trkpt lat="46.34286" lon="-0.53498">
        <ele>41</ele>
        <time>2013-10-24T15:56:38Z</time>
      </trkpt>
      <trkpt lat="46.34281" lon="-0.53499">
        <ele>41</ele>
        <time>2013-10-24T15:56:43Z</time>
      </trkpt>
      <trkpt lat="46.34276" lon="-0.53501">
        <ele>41</ele>
        <time>2013-10-24T15:56:48Z</time>
      </trkpt>
      <trkpt lat="46.34272" lon="-0.53504">
        <ele>41</ele>
        <time>2013-10-24T15:56:53Z</time>
      </trkpt>
      <trkpt lat="46.34267" lon="-0.53506">
        <ele>41</ele>
        <time>2013-10-24T15:56:58Z</time>
      </trkpt>
      <trkpt lat="46.34262" lon="-0.5351">
        <ele>41</ele>
        <time>2013-10-24T15:57:03Z</time>
      </trkpt>
      <trkpt lat="46.34257" lon="-0.53512">
        <ele>41</ele>
        <time>2013-10-24T15:57:08Z</time>
      </trkpt>
      <trkpt lat="46.34252" lon="-0.53515">
        <ele>41</ele>
        <time>2013-10-24T15:57:13Z</time>
      </trkpt>
      <trkpt lat="46.34247" lon="-0.53517">
        <ele>41</ele>
        <time>2013-10-24T15:57:18Z</time>
      </trkpt>
      <trkpt lat="46.34241" lon="-0.53519">
        <ele>41</ele>
        <time>2013-10-24T15:57:23Z</time>
      </trkpt>
      <trkpt lat="46.34237" lon="-0.53521">
        <ele>41</ele>
        <time>2013-10-24T15:57:28Z</time>
      </trkpt>
    </trkseg>
  </trk>
</gpx>